<?xml version="1.0" encoding="UTF-8" standalone="no" ?>
<gpx xmlns="http://www.topografix.com/GPX/1/1" xmlns:xsi="http://www.w3.org/2001/XMLSchema-instance" xsi:schemaLocation="http://www.topografix.com/GPX/1/1 http://www.topografix.com/GPX/1/1/gpx.xsd" version="1.1" creator="VisuGPX - https://www.visugpx.com">
  <metadata>
    <name>boussay - clisson</name>
  </metadata>
  <trk>
    <name><![CDATA[Sans titre]]></name>
    <trkseg>
      <trkpt lat="47.04665" lon="-1.18888">
        <ele>77.05674792242</ele>
        <time>2022-01-14T19:56:58.000Z</time>
      </trkpt>
      <trkpt lat="47.04727" lon="-1.18941">
        <ele>76.06959907349</ele>
        <time>2022-01-14T19:56:58.014Z</time>
      </trkpt>
      <trkpt lat="47.0478" lon="-1.18981">
        <ele>75.44644383411</ele>
        <time>2022-01-14T19:56:58.040Z</time>
      </trkpt>
      <trkpt lat="47.0482" lon="-1.19014">
        <ele>74.81101045024</ele>
        <time>2022-01-14T19:56:58.075Z</time>
      </trkpt>
      <trkpt lat="47.04852" lon="-1.19035">
        <ele>74.01562617288</ele>
        <time>2022-01-14T19:56:58.117Z</time>
      </trkpt>
      <trkpt lat="47.04953" lon="-1.19073">
        <ele>72.82233986385</ele>
        <time>2022-01-14T19:56:58.180Z</time>
      </trkpt>
      <trkpt lat="47.05007" lon="-1.19091">
        <ele>71.81379378325</ele>
        <time>2022-01-14T19:56:58.254Z</time>
      </trkpt>
      <trkpt lat="47.05009" lon="-1.19086">
        <ele>71.13933648248</ele>
        <time>2022-01-14T19:56:58.329Z</time>
      </trkpt>
      <trkpt lat="47.05012" lon="-1.19081">
        <ele>70.64102942489</ele>
        <time>2022-01-14T19:56:58.405Z</time>
      </trkpt>
      <trkpt lat="47.05019" lon="-1.19085">
        <ele>70.00164907833</ele>
        <time>2022-01-14T19:56:58.483Z</time>
      </trkpt>
      <trkpt lat="47.05032" lon="-1.19083">
        <ele>69.82285146161</ele>
        <time>2022-01-14T19:56:58.563Z</time>
      </trkpt>
      <trkpt lat="47.05066" lon="-1.19073">
        <ele>69.72779203085</ele>
        <time>2022-01-14T19:56:58.650Z</time>
      </trkpt>
      <trkpt lat="47.05066" lon="-1.19073">
        <ele>69.64834295371</ele>
        <time>2022-01-14T19:56:58.737Z</time>
      </trkpt>
      <trkpt lat="47.05119" lon="-1.19057">
        <ele>69.50367287577</ele>
        <time>2022-01-14T19:56:58.835Z</time>
      </trkpt>
      <trkpt lat="47.05128" lon="-1.19048">
        <ele>69.41897484108</ele>
        <time>2022-01-14T19:56:58.935Z</time>
      </trkpt>
      <trkpt lat="47.05133" lon="-1.19038">
        <ele>69.35437999872</ele>
        <time>2022-01-14T19:56:59.037Z</time>
      </trkpt>
      <trkpt lat="47.0514" lon="-1.19033">
        <ele>69.2865659139</ele>
        <time>2022-01-14T19:56:59.140Z</time>
      </trkpt>
      <trkpt lat="47.0515" lon="-1.19029">
        <ele>69.21016847841</ele>
        <time>2022-01-14T19:56:59.245Z</time>
      </trkpt>
      <trkpt lat="47.0515" lon="-1.19029">
        <ele>69.15451430498</ele>
        <time>2022-01-14T19:56:59.350Z</time>
      </trkpt>
      <trkpt lat="47.05156" lon="-1.19024">
        <ele>69.0969254617</ele>
        <time>2022-01-14T19:56:59.457Z</time>
      </trkpt>
      <trkpt lat="47.0516" lon="-1.19">
        <ele>69.06808395378</ele>
        <time>2022-01-14T19:56:59.567Z</time>
      </trkpt>
      <trkpt lat="47.05168" lon="-1.18976">
        <ele>69.04200573478</ele>
        <time>2022-01-14T19:56:59.681Z</time>
      </trkpt>
      <trkpt lat="47.05196" lon="-1.18913">
        <ele>68.9579383804</ele>
        <time>2022-01-14T19:56:59.805Z</time>
      </trkpt>
      <trkpt lat="47.05221" lon="-1.18872">
        <ele>68.87331600974</ele>
        <time>2022-01-14T19:56:59.937Z</time>
      </trkpt>
      <trkpt lat="47.05239" lon="-1.18852">
        <ele>68.7819888189</ele>
        <time>2022-01-14T19:57:00.073Z</time>
      </trkpt>
      <trkpt lat="47.05267" lon="-1.1882">
        <ele>68.80961208217</ele>
        <time>2022-01-14T19:57:00.216Z</time>
      </trkpt>
      <trkpt lat="47.05281" lon="-1.18811">
        <ele>68.83140101892</ele>
        <time>2022-01-14T19:57:00.362Z</time>
      </trkpt>
      <trkpt lat="47.05286" lon="-1.18821">
        <ele>68.83395990955</ele>
        <time>2022-01-14T19:57:00.510Z</time>
      </trkpt>
      <trkpt lat="47.05305" lon="-1.18854">
        <ele>68.82292877105</ele>
        <time>2022-01-14T19:57:00.664Z</time>
      </trkpt>
      <trkpt lat="47.05305" lon="-1.18854">
        <ele>68.87231246562</ele>
        <time>2022-01-14T19:57:00.818Z</time>
      </trkpt>
      <trkpt lat="47.05337" lon="-1.18913">
        <ele>69.02590588315</ele>
        <time>2022-01-14T19:57:00.982Z</time>
      </trkpt>
      <trkpt lat="47.05337" lon="-1.18913">
        <ele>69.12356131255</ele>
        <time>2022-01-14T19:57:01.146Z</time>
      </trkpt>
      <trkpt lat="47.05364" lon="-1.18965">
        <ele>69.45649520714</ele>
        <time>2022-01-14T19:57:01.319Z</time>
      </trkpt>
      <trkpt lat="47.05451" lon="-1.19119">
        <ele>69.50723546696</ele>
        <time>2022-01-14T19:57:01.519Z</time>
      </trkpt>
      <trkpt lat="47.05464" lon="-1.19141">
        <ele>69.63159792975</ele>
        <time>2022-01-14T19:57:01.723Z</time>
      </trkpt>
      <trkpt lat="47.05472" lon="-1.1915">
        <ele>69.74772525479</ele>
        <time>2022-01-14T19:57:01.929Z</time>
      </trkpt>
      <trkpt lat="47.05479" lon="-1.19153">
        <ele>69.86540214871</ele>
        <time>2022-01-14T19:57:02.137Z</time>
      </trkpt>
      <trkpt lat="47.05485" lon="-1.19154">
        <ele>69.98757607017</ele>
        <time>2022-01-14T19:57:02.346Z</time>
      </trkpt>
      <trkpt lat="47.05497" lon="-1.19152">
        <ele>70.11969435118</ele>
        <time>2022-01-14T19:57:02.557Z</time>
      </trkpt>
      <trkpt lat="47.05526" lon="-1.19141">
        <ele>70.3026639438</ele>
        <time>2022-01-14T19:57:02.774Z</time>
      </trkpt>
      <trkpt lat="47.05548" lon="-1.19135">
        <ele>70.49602666575</ele>
        <time>2022-01-14T19:57:02.996Z</time>
      </trkpt>
      <trkpt lat="47.05558" lon="-1.19135">
        <ele>70.69371246944</ele>
        <time>2022-01-14T19:57:03.220Z</time>
      </trkpt>
      <trkpt lat="47.05583" lon="-1.19144">
        <ele>70.92414717135</ele>
        <time>2022-01-14T19:57:03.449Z</time>
      </trkpt>
      <trkpt lat="47.05624" lon="-1.19168">
        <ele>71.18699217448</ele>
        <time>2022-01-14T19:57:03.687Z</time>
      </trkpt>
      <trkpt lat="47.05639" lon="-1.1918">
        <ele>71.41700920967</ele>
        <time>2022-01-14T19:57:03.928Z</time>
      </trkpt>
      <trkpt lat="47.05715" lon="-1.19253">
        <ele>71.64721536183</ele>
        <time>2022-01-14T19:57:04.188Z</time>
      </trkpt>
      <trkpt lat="47.0573" lon="-1.19265">
        <ele>71.91859724361</ele>
        <time>2022-01-14T19:57:04.451Z</time>
      </trkpt>
      <trkpt lat="47.05746" lon="-1.1927">
        <ele>72.21647559601</ele>
        <time>2022-01-14T19:57:04.717Z</time>
      </trkpt>
      <trkpt lat="47.05774" lon="-1.19277">
        <ele>72.51819896765</ele>
        <time>2022-01-14T19:57:04.989Z</time>
      </trkpt>
      <trkpt lat="47.05797" lon="-1.19285">
        <ele>72.91225837032</ele>
        <time>2022-01-14T19:57:05.266Z</time>
      </trkpt>
      <trkpt lat="47.05803" lon="-1.19295">
        <ele>73.27984240747</ele>
        <time>2022-01-14T19:57:05.544Z</time>
      </trkpt>
      <trkpt lat="47.05806" lon="-1.19308">
        <ele>73.64910630641</ele>
        <time>2022-01-14T19:57:05.824Z</time>
      </trkpt>
      <trkpt lat="47.05809" lon="-1.19384">
        <ele>74.05920876068</ele>
        <time>2022-01-14T19:57:06.115Z</time>
      </trkpt>
      <trkpt lat="47.05817" lon="-1.19438">
        <ele>74.46424431166</ele>
        <time>2022-01-14T19:57:06.413Z</time>
      </trkpt>
      <trkpt lat="47.05828" lon="-1.19476">
        <ele>74.86564949381</ele>
        <time>2022-01-14T19:57:06.717Z</time>
      </trkpt>
      <trkpt lat="47.05838" lon="-1.19498">
        <ele>75.16842477219</ele>
        <time>2022-01-14T19:57:07.025Z</time>
      </trkpt>
      <trkpt lat="47.05843" lon="-1.19507">
        <ele>75.42118454788</ele>
        <time>2022-01-14T19:57:07.334Z</time>
      </trkpt>
      <trkpt lat="47.05846" lon="-1.19522">
        <ele>75.61908018097</ele>
        <time>2022-01-14T19:57:07.645Z</time>
      </trkpt>
      <trkpt lat="47.05858" lon="-1.19574">
        <ele>75.77104617882</ele>
        <time>2022-01-14T19:57:07.964Z</time>
      </trkpt>
      <trkpt lat="47.0587" lon="-1.19603">
        <ele>75.84960067255</ele>
        <time>2022-01-14T19:57:08.287Z</time>
      </trkpt>
      <trkpt lat="47.05901" lon="-1.19671">
        <ele>75.9244804067</ele>
        <time>2022-01-14T19:57:08.622Z</time>
      </trkpt>
      <trkpt lat="47.05908" lon="-1.19693">
        <ele>75.88468552511</ele>
        <time>2022-01-14T19:57:08.960Z</time>
      </trkpt>
      <trkpt lat="47.05908" lon="-1.19698">
        <ele>75.77384627962</ele>
        <time>2022-01-14T19:57:09.299Z</time>
      </trkpt>
      <trkpt lat="47.05908" lon="-1.19698">
        <ele>75.60261082288</ele>
        <time>2022-01-14T19:57:09.638Z</time>
      </trkpt>
      <trkpt lat="47.0591" lon="-1.19718">
        <ele>75.3595866719</ele>
        <time>2022-01-14T19:57:09.979Z</time>
      </trkpt>
      <trkpt lat="47.05925" lon="-1.19927">
        <ele>74.86122154072</ele>
        <time>2022-01-14T19:57:10.349Z</time>
      </trkpt>
      <trkpt lat="47.05928" lon="-1.1994">
        <ele>74.53152851919</ele>
        <time>2022-01-14T19:57:10.721Z</time>
      </trkpt>
      <trkpt lat="47.05911" lon="-1.19929">
        <ele>74.12929973685</ele>
        <time>2022-01-14T19:57:11.097Z</time>
      </trkpt>
      <trkpt lat="47.05753" lon="-1.19867">
        <ele>73.5744985678</ele>
        <time>2022-01-14T19:57:11.505Z</time>
      </trkpt>
      <trkpt lat="47.05753" lon="-1.19867">
        <ele>73.15217154625</ele>
        <time>2022-01-14T19:57:11.913Z</time>
      </trkpt>
      <trkpt lat="47.05734" lon="-1.19866">
        <ele>72.7244159824</ele>
        <time>2022-01-14T19:57:12.325Z</time>
      </trkpt>
      <trkpt lat="47.05719" lon="-1.19868">
        <ele>72.29219464445</ele>
        <time>2022-01-14T19:57:12.740Z</time>
      </trkpt>
      <trkpt lat="47.05701" lon="-1.19877">
        <ele>71.85433315246</ele>
        <time>2022-01-14T19:57:13.159Z</time>
      </trkpt>
      <trkpt lat="47.05687" lon="-1.19888">
        <ele>71.40491663271</ele>
        <time>2022-01-14T19:57:13.581Z</time>
      </trkpt>
      <trkpt lat="47.0567" lon="-1.19908">
        <ele>70.95140420168</ele>
        <time>2022-01-14T19:57:14.008Z</time>
      </trkpt>
      <trkpt lat="47.05652" lon="-1.19934">
        <ele>70.46112323122</ele>
        <time>2022-01-14T19:57:14.440Z</time>
      </trkpt>
      <trkpt lat="47.05605" lon="-1.20028">
        <ele>69.72206737269</ele>
        <time>2022-01-14T19:57:14.888Z</time>
      </trkpt>
      <trkpt lat="47.05605" lon="-1.20028">
        <ele>69.24488989687</ele>
        <time>2022-01-14T19:57:15.336Z</time>
      </trkpt>
      <trkpt lat="47.05572" lon="-1.20094">
        <ele>68.65944772985</ele>
        <time>2022-01-14T19:57:15.795Z</time>
      </trkpt>
      <trkpt lat="47.05554" lon="-1.20111">
        <ele>68.1839524218</ele>
        <time>2022-01-14T19:57:16.258Z</time>
      </trkpt>
      <trkpt lat="47.05567" lon="-1.20136">
        <ele>67.81834800362</ele>
        <time>2022-01-14T19:57:16.725Z</time>
      </trkpt>
      <trkpt lat="47.05602" lon="-1.20199">
        <ele>67.47336372732</ele>
        <time>2022-01-14T19:57:17.204Z</time>
      </trkpt>
      <trkpt lat="47.05613" lon="-1.20227">
        <ele>67.00408136669</ele>
        <time>2022-01-14T19:57:17.687Z</time>
      </trkpt>
      <trkpt lat="47.05622" lon="-1.20261">
        <ele>66.44205602468</ele>
        <time>2022-01-14T19:57:18.175Z</time>
      </trkpt>
      <trkpt lat="47.0563" lon="-1.20294">
        <ele>66.04617800141</ele>
        <time>2022-01-14T19:57:18.668Z</time>
      </trkpt>
      <trkpt lat="47.05645" lon="-1.20381">
        <ele>65.59281651801</ele>
        <time>2022-01-14T19:57:19.173Z</time>
      </trkpt>
      <trkpt lat="47.05652" lon="-1.20419">
        <ele>65.1937369481</ele>
        <time>2022-01-14T19:57:19.684Z</time>
      </trkpt>
      <trkpt lat="47.05664" lon="-1.20466">
        <ele>64.80642393902</ele>
        <time>2022-01-14T19:57:20.201Z</time>
      </trkpt>
      <trkpt lat="47.05672" lon="-1.20488">
        <ele>64.33613270207</ele>
        <time>2022-01-14T19:57:20.722Z</time>
      </trkpt>
      <trkpt lat="47.05687" lon="-1.2052">
        <ele>63.76793057259</ele>
        <time>2022-01-14T19:57:21.248Z</time>
      </trkpt>
      <trkpt lat="47.05705" lon="-1.20565">
        <ele>63.27975974602</ele>
        <time>2022-01-14T19:57:21.781Z</time>
      </trkpt>
      <trkpt lat="47.0572" lon="-1.20592">
        <ele>62.86622190023</ele>
        <time>2022-01-14T19:57:22.319Z</time>
      </trkpt>
      <trkpt lat="47.0572" lon="-1.20592">
        <ele>62.50735711874</ele>
        <time>2022-01-14T19:57:22.857Z</time>
      </trkpt>
      <trkpt lat="47.05733" lon="-1.20616">
        <ele>62.19961601442</ele>
        <time>2022-01-14T19:57:23.399Z</time>
      </trkpt>
      <trkpt lat="47.05748" lon="-1.20638">
        <ele>61.90732641459</ele>
        <time>2022-01-14T19:57:23.945Z</time>
      </trkpt>
      <trkpt lat="47.05757" lon="-1.20675">
        <ele>61.58202436938</ele>
        <time>2022-01-14T19:57:24.497Z</time>
      </trkpt>
      <trkpt lat="47.05775" lon="-1.20707">
        <ele>61.30258933073</ele>
        <time>2022-01-14T19:57:25.054Z</time>
      </trkpt>
      <trkpt lat="47.05787" lon="-1.20723">
        <ele>61.09541069913</ele>
        <time>2022-01-14T19:57:25.615Z</time>
      </trkpt>
      <trkpt lat="47.05837" lon="-1.20846">
        <ele>60.52263188289</ele>
        <time>2022-01-14T19:57:26.195Z</time>
      </trkpt>
      <trkpt lat="47.05894" lon="-1.20919">
        <ele>60.35535714383</ele>
        <time>2022-01-14T19:57:26.790Z</time>
      </trkpt>
      <trkpt lat="47.05929" lon="-1.20972">
        <ele>60.46308286091</ele>
        <time>2022-01-14T19:57:27.395Z</time>
      </trkpt>
      <trkpt lat="47.05845" lon="-1.21091">
        <ele>60.50692887002</ele>
        <time>2022-01-14T19:57:28.024Z</time>
      </trkpt>
      <trkpt lat="47.05887" lon="-1.2113">
        <ele>60.63070455051</ele>
        <time>2022-01-14T19:57:28.663Z</time>
      </trkpt>
      <trkpt lat="47.05887" lon="-1.21133">
        <ele>60.64148980353</ele>
        <time>2022-01-14T19:57:29.302Z</time>
      </trkpt>
      <trkpt lat="47.05887" lon="-1.2113">
        <ele>60.63070455051</ele>
        <time>2022-01-14T19:57:29.942Z</time>
      </trkpt>
      <trkpt lat="47.05845" lon="-1.21091">
        <ele>60.36126038824</ele>
        <time>2022-01-14T19:57:30.592Z</time>
      </trkpt>
      <trkpt lat="47.0584" lon="-1.21093">
        <ele>60.27572663423</ele>
        <time>2022-01-14T19:57:31.243Z</time>
      </trkpt>
      <trkpt lat="47.05833" lon="-1.21089">
        <ele>60.15380366061</ele>
        <time>2022-01-14T19:57:31.896Z</time>
      </trkpt>
      <trkpt lat="47.05789" lon="-1.2105">
        <ele>59.87688955685</ele>
        <time>2022-01-14T19:57:32.559Z</time>
      </trkpt>
      <trkpt lat="47.05779" lon="-1.2105">
        <ele>59.72359465133</ele>
        <time>2022-01-14T19:57:33.224Z</time>
      </trkpt>
      <trkpt lat="47.05768" lon="-1.21055">
        <ele>59.56316475222</ele>
        <time>2022-01-14T19:57:33.891Z</time>
      </trkpt>
      <trkpt lat="47.05715" lon="-1.21087">
        <ele>59.45850317813</ele>
        <time>2022-01-14T19:57:34.570Z</time>
      </trkpt>
      <trkpt lat="47.057" lon="-1.21103">
        <ele>59.31651630002</ele>
        <time>2022-01-14T19:57:35.252Z</time>
      </trkpt>
      <trkpt lat="47.05673" lon="-1.21145">
        <ele>59.23327812847</ele>
        <time>2022-01-14T19:57:35.942Z</time>
      </trkpt>
      <trkpt lat="47.05665" lon="-1.21174">
        <ele>58.94328143257</ele>
        <time>2022-01-14T19:57:36.636Z</time>
      </trkpt>
      <trkpt lat="47.05663" lon="-1.21173">
        <ele>58.63743968874</ele>
        <time>2022-01-14T19:57:37.331Z</time>
      </trkpt>
      <trkpt lat="47.05655" lon="-1.21179">
        <ele>58.25151314436</ele>
        <time>2022-01-14T19:57:38.028Z</time>
      </trkpt>
      <trkpt lat="47.0565" lon="-1.21189">
        <ele>57.82871733614</ele>
        <time>2022-01-14T19:57:38.726Z</time>
      </trkpt>
      <trkpt lat="47.05635" lon="-1.21238">
        <ele>57.23805546169</ele>
        <time>2022-01-14T19:57:39.432Z</time>
      </trkpt>
      <trkpt lat="47.05639" lon="-1.21261">
        <ele>56.73514994822</ele>
        <time>2022-01-14T19:57:40.141Z</time>
      </trkpt>
      <trkpt lat="47.05645" lon="-1.21288">
        <ele>56.20379576202</ele>
        <time>2022-01-14T19:57:40.854Z</time>
      </trkpt>
      <trkpt lat="47.05669" lon="-1.21322">
        <ele>55.75273585607</ele>
        <time>2022-01-14T19:57:41.573Z</time>
      </trkpt>
      <trkpt lat="47.05672" lon="-1.21335">
        <ele>55.27714173568</ele>
        <time>2022-01-14T19:57:42.294Z</time>
      </trkpt>
      <trkpt lat="47.05676" lon="-1.21432">
        <ele>54.63022996533</ele>
        <time>2022-01-14T19:57:43.029Z</time>
      </trkpt>
      <trkpt lat="47.05684" lon="-1.21476">
        <ele>54.16250212907</ele>
        <time>2022-01-14T19:57:43.770Z</time>
      </trkpt>
      <trkpt lat="47.05683" lon="-1.21512">
        <ele>53.8453608947</ele>
        <time>2022-01-14T19:57:44.516Z</time>
      </trkpt>
      <trkpt lat="47.05674" lon="-1.21554">
        <ele>53.53329020978</ele>
        <time>2022-01-14T19:57:45.268Z</time>
      </trkpt>
      <trkpt lat="47.05675" lon="-1.21638">
        <ele>53.416012753</ele>
        <time>2022-01-14T19:57:46.031Z</time>
      </trkpt>
      <trkpt lat="47.05675" lon="-1.21638">
        <ele>53.07793468474</ele>
        <time>2022-01-14T19:57:46.794Z</time>
      </trkpt>
      <trkpt lat="47.05675" lon="-1.21649">
        <ele>52.74467451151</ele>
        <time>2022-01-14T19:57:47.559Z</time>
      </trkpt>
      <trkpt lat="47.0568" lon="-1.21694">
        <ele>52.33251996695</ele>
        <time>2022-01-14T19:57:48.330Z</time>
      </trkpt>
      <trkpt lat="47.05701" lon="-1.2181">
        <ele>52.01088093195</ele>
        <time>2022-01-14T19:57:49.117Z</time>
      </trkpt>
      <trkpt lat="47.05711" lon="-1.21854">
        <ele>51.70070677614</ele>
        <time>2022-01-14T19:57:49.911Z</time>
      </trkpt>
      <trkpt lat="47.05711" lon="-1.21854">
        <ele>51.46644996112</ele>
        <time>2022-01-14T19:57:50.705Z</time>
      </trkpt>
      <trkpt lat="47.05714" lon="-1.21863">
        <ele>51.26233016588</ele>
        <time>2022-01-14T19:57:51.500Z</time>
      </trkpt>
      <trkpt lat="47.05727" lon="-1.21971">
        <ele>50.9496474565</ele>
        <time>2022-01-14T19:57:52.310Z</time>
      </trkpt>
      <trkpt lat="47.05733" lon="-1.21995">
        <ele>50.81523678946</ele>
        <time>2022-01-14T19:57:53.124Z</time>
      </trkpt>
      <trkpt lat="47.05768" lon="-1.22074">
        <ele>50.72072673749</ele>
        <time>2022-01-14T19:57:53.951Z</time>
      </trkpt>
      <trkpt lat="47.05778" lon="-1.22092">
        <ele>50.70929778944</ele>
        <time>2022-01-14T19:57:54.781Z</time>
      </trkpt>
      <trkpt lat="47.0579" lon="-1.22107">
        <ele>50.86057065584</ele>
        <time>2022-01-14T19:57:55.614Z</time>
      </trkpt>
      <trkpt lat="47.05843" lon="-1.22144">
        <ele>51.40424649094</ele>
        <time>2022-01-14T19:57:56.459Z</time>
      </trkpt>
      <trkpt lat="47.05917" lon="-1.22177">
        <ele>51.63552780073</ele>
        <time>2022-01-14T19:57:57.319Z</time>
      </trkpt>
      <trkpt lat="47.05971" lon="-1.22196">
        <ele>51.90541371769</ele>
        <time>2022-01-14T19:57:58.190Z</time>
      </trkpt>
      <trkpt lat="47.05992" lon="-1.22194">
        <ele>52.37465497387</ele>
        <time>2022-01-14T19:57:59.065Z</time>
      </trkpt>
      <trkpt lat="47.06014" lon="-1.22182">
        <ele>52.95146514682</ele>
        <time>2022-01-14T19:57:59.945Z</time>
      </trkpt>
      <trkpt lat="47.06096" lon="-1.22131">
        <ele>53.65644750671</ele>
        <time>2022-01-14T19:58:00.843Z</time>
      </trkpt>
      <trkpt lat="47.06114" lon="-1.22116">
        <ele>54.3016946968</ele>
        <time>2022-01-14T19:58:01.745Z</time>
      </trkpt>
      <trkpt lat="47.06152" lon="-1.22052">
        <ele>55.05974420689</ele>
        <time>2022-01-14T19:58:02.659Z</time>
      </trkpt>
      <trkpt lat="47.06245" lon="-1.21883">
        <ele>56.08346230242</ele>
        <time>2022-01-14T19:58:03.602Z</time>
      </trkpt>
      <trkpt lat="47.06254" lon="-1.2187">
        <ele>56.64728872883</ele>
        <time>2022-01-14T19:58:04.548Z</time>
      </trkpt>
      <trkpt lat="47.06254" lon="-1.2187">
        <ele>57.09722544789</ele>
        <time>2022-01-14T19:58:05.494Z</time>
      </trkpt>
      <trkpt lat="47.06259" lon="-1.21862">
        <ele>57.45578534681</ele>
        <time>2022-01-14T19:58:06.441Z</time>
      </trkpt>
      <trkpt lat="47.06259" lon="-1.21862">
        <ele>57.67440882995</ele>
        <time>2022-01-14T19:58:07.388Z</time>
      </trkpt>
      <trkpt lat="47.06316" lon="-1.22021">
        <ele>57.62295883595</ele>
        <time>2022-01-14T19:58:08.360Z</time>
      </trkpt>
      <trkpt lat="47.06319" lon="-1.22039">
        <ele>57.55444747017</ele>
        <time>2022-01-14T19:58:09.334Z</time>
      </trkpt>
      <trkpt lat="47.06323" lon="-1.22184">
        <ele>57.26056077677</ele>
        <time>2022-01-14T19:58:10.328Z</time>
      </trkpt>
      <trkpt lat="47.06331" lon="-1.22237">
        <ele>56.90986915614</ele>
        <time>2022-01-14T19:58:11.329Z</time>
      </trkpt>
      <trkpt lat="47.06338" lon="-1.22283">
        <ele>56.36809221595</ele>
        <time>2022-01-14T19:58:12.337Z</time>
      </trkpt>
      <trkpt lat="47.06354" lon="-1.22333">
        <ele>55.60827499847</ele>
        <time>2022-01-14T19:58:13.353Z</time>
      </trkpt>
      <trkpt lat="47.06377" lon="-1.22387">
        <ele>54.74354631106</ele>
        <time>2022-01-14T19:58:14.377Z</time>
      </trkpt>
      <trkpt lat="47.064" lon="-1.2246">
        <ele>53.73837602805</ele>
        <time>2022-01-14T19:58:15.412Z</time>
      </trkpt>
      <trkpt lat="47.06423" lon="-1.22521">
        <ele>52.50040270948</ele>
        <time>2022-01-14T19:58:16.457Z</time>
      </trkpt>
      <trkpt lat="47.06469" lon="-1.22619">
        <ele>51.08140797902</ele>
        <time>2022-01-14T19:58:17.518Z</time>
      </trkpt>
      <trkpt lat="47.0649" lon="-1.22706">
        <ele>49.58509770651</ele>
        <time>2022-01-14T19:58:18.592Z</time>
      </trkpt>
      <trkpt lat="47.06515" lon="-1.22763">
        <ele>48.20630906923</ele>
        <time>2022-01-14T19:58:19.675Z</time>
      </trkpt>
      <trkpt lat="47.06515" lon="-1.22763">
        <ele>46.70473167053</ele>
        <time>2022-01-14T19:58:20.758Z</time>
      </trkpt>
      <trkpt lat="47.06562" lon="-1.22861">
        <ele>45.00121464341</ele>
        <time>2022-01-14T19:58:21.857Z</time>
      </trkpt>
      <trkpt lat="47.06579" lon="-1.22902">
        <ele>43.23665151979</ele>
        <time>2022-01-14T19:58:22.963Z</time>
      </trkpt>
      <trkpt lat="47.06578" lon="-1.22902">
        <ele>41.65885244851</ele>
        <time>2022-01-14T19:58:24.069Z</time>
      </trkpt>
      <trkpt lat="47.06596" lon="-1.22945">
        <ele>39.80343263833</ele>
        <time>2022-01-14T19:58:25.182Z</time>
      </trkpt>
      <trkpt lat="47.066" lon="-1.22993">
        <ele>38.07554510521</ele>
        <time>2022-01-14T19:58:26.301Z</time>
      </trkpt>
      <trkpt lat="47.06604" lon="-1.23028">
        <ele>36.47559872226</ele>
        <time>2022-01-14T19:58:27.425Z</time>
      </trkpt>
      <trkpt lat="47.0662" lon="-1.23105">
        <ele>35.07940159698</ele>
        <time>2022-01-14T19:58:28.560Z</time>
      </trkpt>
      <trkpt lat="47.06626" lon="-1.23128">
        <ele>33.93327329822</ele>
        <time>2022-01-14T19:58:29.698Z</time>
      </trkpt>
      <trkpt lat="47.06612" lon="-1.23184">
        <ele>32.86827878989</ele>
        <time>2022-01-14T19:58:30.845Z</time>
      </trkpt>
      <trkpt lat="47.06626" lon="-1.23242">
        <ele>31.9732464737</ele>
        <time>2022-01-14T19:58:32.000Z</time>
      </trkpt>
      <trkpt lat="47.06657" lon="-1.23307">
        <ele>31.2478315688</ele>
        <time>2022-01-14T19:58:33.166Z</time>
      </trkpt>
      <trkpt lat="47.06681" lon="-1.23416">
        <ele>30.74742613432</ele>
        <time>2022-01-14T19:58:34.347Z</time>
      </trkpt>
      <trkpt lat="47.06696" lon="-1.23465">
        <ele>30.37771970064</ele>
        <time>2022-01-14T19:58:35.536Z</time>
      </trkpt>
      <trkpt lat="47.06743" lon="-1.2353">
        <ele>30.29402433798</ele>
        <time>2022-01-14T19:58:36.738Z</time>
      </trkpt>
      <trkpt lat="47.06831" lon="-1.23661">
        <ele>30.61673946755</ele>
        <time>2022-01-14T19:58:37.965Z</time>
      </trkpt>
      <trkpt lat="47.06864" lon="-1.23708">
        <ele>30.56239885028</ele>
        <time>2022-01-14T19:58:39.201Z</time>
      </trkpt>
      <trkpt lat="47.06899" lon="-1.23783">
        <ele>30.75296329589</ele>
        <time>2022-01-14T19:58:40.449Z</time>
      </trkpt>
      <trkpt lat="47.06911" lon="-1.23824">
        <ele>31.06057088516</ele>
        <time>2022-01-14T19:58:41.704Z</time>
      </trkpt>
      <trkpt lat="47.06911" lon="-1.23824">
        <ele>31.59178965925</ele>
        <time>2022-01-14T19:58:42.959Z</time>
      </trkpt>
      <trkpt lat="47.06924" lon="-1.23867">
        <ele>32.18932006256</ele>
        <time>2022-01-14T19:58:44.220Z</time>
      </trkpt>
      <trkpt lat="47.06956" lon="-1.2389">
        <ele>33.03784009964</ele>
        <time>2022-01-14T19:58:45.488Z</time>
      </trkpt>
      <trkpt lat="47.06987" lon="-1.2398">
        <ele>34.11465563333</ele>
        <time>2022-01-14T19:58:46.770Z</time>
      </trkpt>
      <trkpt lat="47.07019" lon="-1.24023">
        <ele>35.1412579826</ele>
        <time>2022-01-14T19:58:48.061Z</time>
      </trkpt>
      <trkpt lat="47.07032" lon="-1.24049">
        <ele>36.05467944492</ele>
        <time>2022-01-14T19:58:49.356Z</time>
      </trkpt>
      <trkpt lat="47.07032" lon="-1.24049">
        <ele>36.90364270595</ele>
        <time>2022-01-14T19:58:50.651Z</time>
      </trkpt>
      <trkpt lat="47.07073" lon="-1.24135">
        <ele>37.87452452154</ele>
        <time>2022-01-14T19:58:51.960Z</time>
      </trkpt>
      <trkpt lat="47.07103" lon="-1.24189">
        <ele>38.6820876522</ele>
        <time>2022-01-14T19:58:53.279Z</time>
      </trkpt>
      <trkpt lat="47.07137" lon="-1.24249">
        <ele>39.40409971857</ele>
        <time>2022-01-14T19:58:54.608Z</time>
      </trkpt>
      <trkpt lat="47.07133" lon="-1.24249">
        <ele>40.05514790061</ele>
        <time>2022-01-14T19:58:55.938Z</time>
      </trkpt>
      <trkpt lat="47.07133" lon="-1.24249">
        <ele>40.6256269464</ele>
        <time>2022-01-14T19:58:57.268Z</time>
      </trkpt>
      <trkpt lat="47.07137" lon="-1.24249">
        <ele>39.40409971857</ele>
        <time>2022-01-14T19:58:58.599Z</time>
      </trkpt>
      <trkpt lat="47.07155" lon="-1.2429">
        <ele>41.40050637137</ele>
        <time>2022-01-14T19:58:59.937Z</time>
      </trkpt>
      <trkpt lat="47.07203" lon="-1.24433">
        <ele>41.56666213261</ele>
        <time>2022-01-14T19:59:01.297Z</time>
      </trkpt>
      <trkpt lat="47.0721" lon="-1.24447">
        <ele>41.81149038008</ele>
        <time>2022-01-14T19:59:02.659Z</time>
      </trkpt>
      <trkpt lat="47.07259" lon="-1.2451">
        <ele>42.06000218146</ele>
        <time>2022-01-14T19:59:04.034Z</time>
      </trkpt>
      <trkpt lat="47.07267" lon="-1.24526">
        <ele>42.16811812373</ele>
        <time>2022-01-14T19:59:05.412Z</time>
      </trkpt>
      <trkpt lat="47.07276" lon="-1.24547">
        <ele>42.20563824789</ele>
        <time>2022-01-14T19:59:06.793Z</time>
      </trkpt>
      <trkpt lat="47.07296" lon="-1.24605">
        <ele>42.19724853087</ele>
        <time>2022-01-14T19:59:08.183Z</time>
      </trkpt>
      <trkpt lat="47.07304" lon="-1.24622">
        <ele>41.98154388052</ele>
        <time>2022-01-14T19:59:09.576Z</time>
      </trkpt>
      <trkpt lat="47.07311" lon="-1.24632">
        <ele>41.66868255627</ele>
        <time>2022-01-14T19:59:10.971Z</time>
      </trkpt>
      <trkpt lat="47.07341" lon="-1.24659">
        <ele>41.27991624774</ele>
        <time>2022-01-14T19:59:12.373Z</time>
      </trkpt>
      <trkpt lat="47.07344" lon="-1.24714">
        <ele>40.76150518138</ele>
        <time>2022-01-14T19:59:13.782Z</time>
      </trkpt>
      <trkpt lat="47.07337" lon="-1.24754">
        <ele>40.07392026444</ele>
        <time>2022-01-14T19:59:15.197Z</time>
      </trkpt>
      <trkpt lat="47.07337" lon="-1.24765">
        <ele>39.33500570597</ele>
        <time>2022-01-14T19:59:16.613Z</time>
      </trkpt>
      <trkpt lat="47.07343" lon="-1.2481">
        <ele>38.44048360461</ele>
        <time>2022-01-14T19:59:18.036Z</time>
      </trkpt>
      <trkpt lat="47.0735" lon="-1.24835">
        <ele>37.46815505006</ele>
        <time>2022-01-14T19:59:19.462Z</time>
      </trkpt>
      <trkpt lat="47.07356" lon="-1.24854">
        <ele>36.45831721261</ele>
        <time>2022-01-14T19:59:20.891Z</time>
      </trkpt>
      <trkpt lat="47.07394" lon="-1.24922">
        <ele>35.2555794828</ele>
        <time>2022-01-14T19:59:22.332Z</time>
      </trkpt>
      <trkpt lat="47.07398" lon="-1.24932">
        <ele>34.2149639338</ele>
        <time>2022-01-14T19:59:23.775Z</time>
      </trkpt>
      <trkpt lat="47.07414" lon="-1.24959">
        <ele>33.1261250775</ele>
        <time>2022-01-14T19:59:25.223Z</time>
      </trkpt>
      <trkpt lat="47.07436" lon="-1.25012">
        <ele>32.00753986054</ele>
        <time>2022-01-14T19:59:26.679Z</time>
      </trkpt>
      <trkpt lat="47.07452" lon="-1.25064">
        <ele>30.83691365972</ele>
        <time>2022-01-14T19:59:28.143Z</time>
      </trkpt>
      <trkpt lat="47.07458" lon="-1.25074">
        <ele>29.84764037011</ele>
        <time>2022-01-14T19:59:29.609Z</time>
      </trkpt>
      <trkpt lat="47.07456" lon="-1.25077">
        <ele>28.92646651577</ele>
        <time>2022-01-14T19:59:31.075Z</time>
      </trkpt>
      <trkpt lat="47.07459" lon="-1.25098">
        <ele>28.00735306093</ele>
        <time>2022-01-14T19:59:32.544Z</time>
      </trkpt>
      <trkpt lat="47.07462" lon="-1.25105">
        <ele>27.20897975088</ele>
        <time>2022-01-14T19:59:34.015Z</time>
      </trkpt>
      <trkpt lat="47.07462" lon="-1.25111">
        <ele>26.49301155696</ele>
        <time>2022-01-14T19:59:35.486Z</time>
      </trkpt>
      <trkpt lat="47.07468" lon="-1.25119">
        <ele>25.86122751133</ele>
        <time>2022-01-14T19:59:36.959Z</time>
      </trkpt>
      <trkpt lat="47.07474" lon="-1.25137">
        <ele>25.27621356255</ele>
        <time>2022-01-14T19:59:38.435Z</time>
      </trkpt>
      <trkpt lat="47.07471" lon="-1.25143">
        <ele>24.84424003582</ele>
        <time>2022-01-14T19:59:39.912Z</time>
      </trkpt>
      <trkpt lat="47.07471" lon="-1.25143">
        <ele>24.54004414208</ele>
        <time>2022-01-14T19:59:41.389Z</time>
      </trkpt>
      <trkpt lat="47.07468" lon="-1.2515">
        <ele>24.32033453204</ele>
        <time>2022-01-14T19:59:42.867Z</time>
      </trkpt>
      <trkpt lat="47.07482" lon="-1.25182">
        <ele>24.1870043333</ele>
        <time>2022-01-14T19:59:44.350Z</time>
      </trkpt>
      <trkpt lat="47.07485" lon="-1.2519">
        <ele>24.17016238619</ele>
        <time>2022-01-14T19:59:45.834Z</time>
      </trkpt>
      <trkpt lat="47.07496" lon="-1.25184">
        <ele>24.25938407481</ele>
        <time>2022-01-14T19:59:47.321Z</time>
      </trkpt>
      <trkpt lat="47.07503" lon="-1.25195">
        <ele>24.42073665749</ele>
        <time>2022-01-14T19:59:48.810Z</time>
      </trkpt>
      <trkpt lat="47.07532" lon="-1.25226">
        <ele>24.68942976387</ele>
        <time>2022-01-14T19:59:50.306Z</time>
      </trkpt>
      <trkpt lat="47.07538" lon="-1.25232">
        <ele>25.00716987578</ele>
        <time>2022-01-14T19:59:51.803Z</time>
      </trkpt>
      <trkpt lat="47.07538" lon="-1.25232">
        <ele>25.3621677212</ele>
        <time>2022-01-14T19:59:53.300Z</time>
      </trkpt>
      <trkpt lat="47.07571" lon="-1.25273">
        <ele>25.92218363635</ele>
        <time>2022-01-14T19:59:54.806Z</time>
      </trkpt>
      <trkpt lat="47.07584" lon="-1.25292">
        <ele>26.42579931232</ele>
        <time>2022-01-14T19:59:56.316Z</time>
      </trkpt>
      <trkpt lat="47.07561" lon="-1.25328">
        <ele>26.87317124081</ele>
        <time>2022-01-14T19:59:57.832Z</time>
      </trkpt>
      <trkpt lat="47.07556" lon="-1.25336">
        <ele>27.2977605411</ele>
        <time>2022-01-14T19:59:59.350Z</time>
      </trkpt>
      <trkpt lat="47.07538" lon="-1.25364">
        <ele>27.70960313426</ele>
        <time>2022-01-14T20:00:00.873Z</time>
      </trkpt>
      <trkpt lat="47.07534" lon="-1.25375">
        <ele>28.1100231739</ele>
        <time>2022-01-14T20:00:02.398Z</time>
      </trkpt>
      <trkpt lat="47.07534" lon="-1.25383">
        <ele>28.4851980141</ele>
        <time>2022-01-14T20:00:03.924Z</time>
      </trkpt>
      <trkpt lat="47.07544" lon="-1.2544">
        <ele>28.75871622065</ele>
        <time>2022-01-14T20:00:05.458Z</time>
      </trkpt>
      <trkpt lat="47.07553" lon="-1.25473">
        <ele>29.13841666376</ele>
        <time>2022-01-14T20:00:06.997Z</time>
      </trkpt>
      <trkpt lat="47.07553" lon="-1.25473">
        <ele>29.38568157981</ele>
        <time>2022-01-14T20:00:08.536Z</time>
      </trkpt>
      <trkpt lat="47.07555" lon="-1.2548">
        <ele>29.60595969666</ele>
        <time>2022-01-14T20:00:10.076Z</time>
      </trkpt>
      <trkpt lat="47.07564" lon="-1.25498">
        <ele>29.78860218726</ele>
        <time>2022-01-14T20:00:11.619Z</time>
      </trkpt>
      <trkpt lat="47.07573" lon="-1.2551">
        <ele>29.91428939171</ele>
        <time>2022-01-14T20:00:13.164Z</time>
      </trkpt>
      <trkpt lat="47.07589" lon="-1.25524">
        <ele>30.00958322627</ele>
        <time>2022-01-14T20:00:14.713Z</time>
      </trkpt>
      <trkpt lat="47.07597" lon="-1.25539">
        <ele>30.01107830158</ele>
        <time>2022-01-14T20:00:16.265Z</time>
      </trkpt>
      <trkpt lat="47.07604" lon="-1.25565">
        <ele>29.99272897057</ele>
        <time>2022-01-14T20:00:17.821Z</time>
      </trkpt>
      <trkpt lat="47.07584" lon="-1.2567">
        <ele>29.69309500289</ele>
        <time>2022-01-14T20:00:19.391Z</time>
      </trkpt>
      <trkpt lat="47.07578" lon="-1.25715">
        <ele>29.59055225971</ele>
        <time>2022-01-14T20:00:20.968Z</time>
      </trkpt>
      <trkpt lat="47.0758" lon="-1.25747">
        <ele>29.44808554895</ele>
        <time>2022-01-14T20:00:22.549Z</time>
      </trkpt>
      <trkpt lat="47.07588" lon="-1.25776">
        <ele>29.29060297009</ele>
        <time>2022-01-14T20:00:24.134Z</time>
      </trkpt>
      <trkpt lat="47.07607" lon="-1.25826">
        <ele>29.1500116214</ele>
        <time>2022-01-14T20:00:25.727Z</time>
      </trkpt>
      <trkpt lat="47.07607" lon="-1.25826">
        <ele>29.02721959912</ele>
        <time>2022-01-14T20:00:27.320Z</time>
      </trkpt>
      <trkpt lat="47.07646" lon="-1.25904">
        <ele>28.91911047918</ele>
        <time>2022-01-14T20:00:28.926Z</time>
      </trkpt>
      <trkpt lat="47.0765" lon="-1.25911">
        <ele>28.79273187733</ele>
        <time>2022-01-14T20:00:30.534Z</time>
      </trkpt>
      <trkpt lat="47.07662" lon="-1.25905">
        <ele>28.71900294921</ele>
        <time>2022-01-14T20:00:32.144Z</time>
      </trkpt>
      <trkpt lat="47.07662" lon="-1.25905">
        <ele>28.60221537506</ele>
        <time>2022-01-14T20:00:33.754Z</time>
      </trkpt>
      <trkpt lat="47.07715" lon="-1.25876">
        <ele>28.74943568086</ele>
        <time>2022-01-14T20:00:35.375Z</time>
      </trkpt>
      <trkpt lat="47.07747" lon="-1.2586">
        <ele>28.75862560811</ele>
        <time>2022-01-14T20:00:37.003Z</time>
      </trkpt>
      <trkpt lat="47.07753" lon="-1.25858">
        <ele>28.6096139707</ele>
        <time>2022-01-14T20:00:38.633Z</time>
      </trkpt>
      <trkpt lat="47.07761" lon="-1.25915">
        <ele>28.17833643617</ele>
        <time>2022-01-14T20:00:40.270Z</time>
      </trkpt>
      <trkpt lat="47.07775" lon="-1.25962">
        <ele>27.7249997603</ele>
        <time>2022-01-14T20:00:41.915Z</time>
      </trkpt>
      <trkpt lat="47.07777" lon="-1.25965">
        <ele>27.52875443602</ele>
        <time>2022-01-14T20:00:43.560Z</time>
      </trkpt>
      <trkpt lat="47.07798" lon="-1.25976">
        <ele>27.33220986602</ele>
        <time>2022-01-14T20:00:45.210Z</time>
      </trkpt>
      <trkpt lat="47.07815" lon="-1.26001">
        <ele>27.11475289476</ele>
        <time>2022-01-14T20:00:46.864Z</time>
      </trkpt>
      <trkpt lat="47.07847" lon="-1.2599">
        <ele>27.05237363225</ele>
        <time>2022-01-14T20:00:48.525Z</time>
      </trkpt>
      <trkpt lat="47.07867" lon="-1.2599">
        <ele>26.94338659602</ele>
        <time>2022-01-14T20:00:50.190Z</time>
      </trkpt>
      <trkpt lat="47.07883" lon="-1.25992">
        <ele>26.8482217909</ele>
        <time>2022-01-14T20:00:51.858Z</time>
      </trkpt>
      <trkpt lat="47.07897" lon="-1.25987">
        <ele>26.79030990581</ele>
        <time>2022-01-14T20:00:53.529Z</time>
      </trkpt>
      <trkpt lat="47.07939" lon="-1.25987">
        <ele>26.95017696409</ele>
        <time>2022-01-14T20:00:55.208Z</time>
      </trkpt>
      <trkpt lat="47.07947" lon="-1.26003">
        <ele>26.94111648194</ele>
        <time>2022-01-14T20:00:56.890Z</time>
      </trkpt>
      <trkpt lat="47.07952" lon="-1.26023">
        <ele>26.89445067123</ele>
        <time>2022-01-14T20:00:58.575Z</time>
      </trkpt>
      <trkpt lat="47.07959" lon="-1.2604">
        <ele>26.85045829847</ele>
        <time>2022-01-14T20:01:00.263Z</time>
      </trkpt>
      <trkpt lat="47.07966" lon="-1.26052">
        <ele>26.80599082216</ele>
        <time>2022-01-14T20:01:01.953Z</time>
      </trkpt>
      <trkpt lat="47.07971" lon="-1.26052">
        <ele>26.77445661948</ele>
        <time>2022-01-14T20:01:03.644Z</time>
      </trkpt>
      <trkpt lat="47.07966" lon="-1.26065">
        <ele>26.66258304661</ele>
        <time>2022-01-14T20:01:05.337Z</time>
      </trkpt>
      <trkpt lat="47.07965" lon="-1.2607">
        <ele>26.61019041009</ele>
        <time>2022-01-14T20:01:07.031Z</time>
      </trkpt>
      <trkpt lat="47.07966" lon="-1.261">
        <ele>26.55952737295</ele>
        <time>2022-01-14T20:01:08.729Z</time>
      </trkpt>
      <trkpt lat="47.07963" lon="-1.26134">
        <ele>26.41416300086</ele>
        <time>2022-01-14T20:01:10.432Z</time>
      </trkpt>
      <trkpt lat="47.07955" lon="-1.26144">
        <ele>26.41208992575</ele>
        <time>2022-01-14T20:01:12.137Z</time>
      </trkpt>
      <trkpt lat="47.08007" lon="-1.26226">
        <ele>26.29097730318</ele>
        <time>2022-01-14T20:01:13.857Z</time>
      </trkpt>
      <trkpt lat="47.08008" lon="-1.26226">
        <ele>26.48793724056</ele>
        <time>2022-01-14T20:01:15.577Z</time>
      </trkpt>
      <trkpt lat="47.083" lon="-1.26465">
        <ele>27.27265034482</ele>
        <time>2022-01-14T20:01:17.364Z</time>
      </trkpt>
      <trkpt lat="47.08299" lon="-1.26463">
        <ele>28.2805029831</ele>
        <time>2022-01-14T20:01:19.151Z</time>
      </trkpt>
      <trkpt lat="47.08314" lon="-1.26454">
        <ele>28.98394949253</ele>
        <time>2022-01-14T20:01:20.942Z</time>
      </trkpt>
      <trkpt lat="47.08373" lon="-1.26439">
        <ele>30.02373580783</ele>
        <time>2022-01-14T20:01:22.745Z</time>
      </trkpt>
      <trkpt lat="47.0839" lon="-1.26434">
        <ele>30.85254152687</ele>
        <time>2022-01-14T20:01:24.551Z</time>
      </trkpt>
      <trkpt lat="47.08398" lon="-1.26429">
        <ele>31.64548433062</ele>
        <time>2022-01-14T20:01:26.359Z</time>
      </trkpt>
      <trkpt lat="47.0842" lon="-1.26413">
        <ele>32.51080222121</ele>
        <time>2022-01-14T20:01:28.172Z</time>
      </trkpt>
      <trkpt lat="47.08426" lon="-1.26406">
        <ele>33.27177281625</ele>
        <time>2022-01-14T20:01:29.986Z</time>
      </trkpt>
      <trkpt lat="47.08446" lon="-1.26381">
        <ele>34.72916979391</ele>
        <time>2022-01-14T20:01:31.806Z</time>
      </trkpt>
      <trkpt lat="47.08461" lon="-1.26358">
        <ele>35.40219227317</ele>
        <time>2022-01-14T20:01:33.630Z</time>
      </trkpt>
      <trkpt lat="47.08478" lon="-1.26329">
        <ele>36.02453520529</ele>
        <time>2022-01-14T20:01:35.459Z</time>
      </trkpt>
      <trkpt lat="47.0849" lon="-1.26307">
        <ele>36.57071203431</ele>
        <time>2022-01-14T20:01:37.292Z</time>
      </trkpt>
      <trkpt lat="47.08492" lon="-1.26314">
        <ele>37.03459325328</ele>
        <time>2022-01-14T20:01:39.126Z</time>
      </trkpt>
      <trkpt lat="47.08531" lon="-1.26443">
        <ele>37.65547118604</ele>
        <time>2022-01-14T20:01:40.979Z</time>
      </trkpt>
      <trkpt lat="47.08568" lon="-1.26557">
        <ele>37.91633303262</ele>
        <time>2022-01-14T20:01:42.850Z</time>
      </trkpt>
      <trkpt lat="47.08581" lon="-1.26572">
        <ele>38.14736525354</ele>
        <time>2022-01-14T20:01:44.724Z</time>
      </trkpt>
      <trkpt lat="47.08584" lon="-1.26573">
        <ele>38.30925466885</ele>
        <time>2022-01-14T20:01:46.599Z</time>
      </trkpt>
      <trkpt lat="47.08587" lon="-1.26579">
        <ele>38.42493895735</ele>
        <time>2022-01-14T20:01:48.475Z</time>
      </trkpt>
      <trkpt lat="47.08586" lon="-1.26588">
        <ele>38.4951151058</ele>
        <time>2022-01-14T20:01:50.352Z</time>
      </trkpt>
      <trkpt lat="47.08585" lon="-1.26608">
        <ele>38.5275362305</ele>
        <time>2022-01-14T20:01:52.232Z</time>
      </trkpt>
      <trkpt lat="47.08637" lon="-1.26797">
        <ele>38.3985733973</ele>
        <time>2022-01-14T20:01:54.139Z</time>
      </trkpt>
      <trkpt lat="47.08643" lon="-1.26846">
        <ele>38.32927679758</ele>
        <time>2022-01-14T20:01:56.053Z</time>
      </trkpt>
      <trkpt lat="47.08644" lon="-1.26877">
        <ele>38.22911218272</ele>
        <time>2022-01-14T20:01:57.971Z</time>
      </trkpt>
      <trkpt lat="47.08644" lon="-1.26884">
        <ele>38.14206800869</ele>
        <time>2022-01-14T20:01:59.890Z</time>
      </trkpt>
      <trkpt lat="47.08651" lon="-1.26871">
        <ele>38.10806997908</ele>
        <time>2022-01-14T20:02:01.812Z</time>
      </trkpt>
      <trkpt lat="47.08654" lon="-1.26863">
        <ele>38.00788894481</ele>
        <time>2022-01-14T20:02:03.735Z</time>
      </trkpt>
      <trkpt lat="47.08654" lon="-1.26857">
        <ele>37.84510184161</ele>
        <time>2022-01-14T20:02:05.659Z</time>
      </trkpt>
      <trkpt lat="47.08671" lon="-1.26821">
        <ele>37.67280279729</ele>
        <time>2022-01-14T20:02:07.589Z</time>
      </trkpt>
      <trkpt lat="47.08685" lon="-1.26792">
        <ele>37.38044007353</ele>
        <time>2022-01-14T20:02:09.524Z</time>
      </trkpt>
      <trkpt lat="47.08719" lon="-1.26731">
        <ele>36.9483810029</ele>
        <time>2022-01-14T20:02:11.469Z</time>
      </trkpt>
      <trkpt lat="47.08781" lon="-1.26622">
        <ele>36.63220060415</ele>
        <time>2022-01-14T20:02:13.434Z</time>
      </trkpt>
      <trkpt lat="47.08811" lon="-1.26581">
        <ele>36.16087742992</ele>
        <time>2022-01-14T20:02:15.407Z</time>
      </trkpt>
      <trkpt lat="47.08849" lon="-1.26534">
        <ele>35.53238859849</ele>
        <time>2022-01-14T20:02:17.390Z</time>
      </trkpt>
      <trkpt lat="47.08858" lon="-1.2652">
        <ele>34.81894140302</ele>
        <time>2022-01-14T20:02:19.376Z</time>
      </trkpt>
      <trkpt lat="47.08868" lon="-1.26499">
        <ele>34.00957747625</ele>
        <time>2022-01-14T20:02:21.365Z</time>
      </trkpt>
      <trkpt lat="47.08881" lon="-1.26469">
        <ele>33.10229848719</ele>
        <time>2022-01-14T20:02:23.359Z</time>
      </trkpt>
      <trkpt lat="47.08902" lon="-1.26426">
        <ele>32.09260568088</ele>
        <time>2022-01-14T20:02:25.360Z</time>
      </trkpt>
      <trkpt lat="47.08922" lon="-1.26381">
        <ele>30.97206800795</ele>
        <time>2022-01-14T20:02:27.368Z</time>
      </trkpt>
      <trkpt lat="47.08931" lon="-1.26358">
        <ele>29.80138917271</ele>
        <time>2022-01-14T20:02:29.380Z</time>
      </trkpt>
      <trkpt lat="47.09055" lon="-1.26402">
        <ele>26.38228145975</ele>
        <time>2022-01-14T20:02:31.418Z</time>
      </trkpt>
      <trkpt lat="47.09098" lon="-1.2643">
        <ele>23.99856893369</ele>
        <time>2022-01-14T20:02:33.465Z</time>
      </trkpt>
      <trkpt lat="47.09116" lon="-1.26436">
        <ele>22.04983528586</ele>
        <time>2022-01-14T20:02:35.516Z</time>
      </trkpt>
      <trkpt lat="47.09098" lon="-1.26529">
        <ele>20.30351641229</ele>
        <time>2022-01-14T20:02:37.580Z</time>
      </trkpt>
      <trkpt lat="47.09079" lon="-1.26594">
        <ele>19.00024121773</ele>
        <time>2022-01-14T20:02:39.654Z</time>
      </trkpt>
      <trkpt lat="47.0906" lon="-1.26673">
        <ele>18.36526106407</ele>
        <time>2022-01-14T20:02:41.739Z</time>
      </trkpt>
      <trkpt lat="47.09031" lon="-1.26739">
        <ele>18.45930502372</ele>
        <time>2022-01-14T20:02:43.835Z</time>
      </trkpt>
      <trkpt lat="47.08999" lon="-1.26796">
        <ele>18.75019476514</ele>
        <time>2022-01-14T20:02:45.941Z</time>
      </trkpt>
      <trkpt lat="47.08967" lon="-1.2683">
        <ele>19.48102253643</ele>
        <time>2022-01-14T20:02:48.055Z</time>
      </trkpt>
      <trkpt lat="47.08939" lon="-1.26871">
        <ele>20.67252445095</ele>
        <time>2022-01-14T20:02:50.177Z</time>
      </trkpt>
      <trkpt lat="47.08944" lon="-1.26939">
        <ele>22.52627082949</ele>
        <time>2022-01-14T20:02:52.308Z</time>
      </trkpt>
      <trkpt lat="47.08958" lon="-1.27005">
        <ele>24.40296422713</ele>
        <time>2022-01-14T20:02:54.449Z</time>
      </trkpt>
      <trkpt lat="47.08959" lon="-1.27005">
        <ele>26.18156264267</ele>
        <time>2022-01-14T20:02:56.590Z</time>
      </trkpt>
      <trkpt lat="47.08956" lon="-1.2702">
        <ele>27.05311127869</ele>
        <time>2022-01-14T20:02:58.733Z</time>
      </trkpt>
      <trkpt lat="47.08955" lon="-1.27054">
        <ele>27.93747982744</ele>
        <time>2022-01-14T20:03:00.880Z</time>
      </trkpt>
      <trkpt lat="47.0896" lon="-1.27122">
        <ele>28.89522871738</ele>
        <time>2022-01-14T20:03:03.037Z</time>
      </trkpt>
      <trkpt lat="47.08977" lon="-1.27146">
        <ele>29.81337928151</ele>
        <time>2022-01-14T20:03:05.199Z</time>
      </trkpt>
      <trkpt lat="47.09022" lon="-1.27204">
        <ele>30.6550574584</ele>
        <time>2022-01-14T20:03:07.373Z</time>
      </trkpt>
      <trkpt lat="47.09009" lon="-1.27241">
        <ele>31.3066217437</ele>
        <time>2022-01-14T20:03:09.552Z</time>
      </trkpt>
      <trkpt lat="47.09003" lon="-1.27268">
        <ele>31.92342009595</ele>
        <time>2022-01-14T20:03:11.735Z</time>
      </trkpt>
      <trkpt lat="47.09001" lon="-1.27289">
        <ele>32.47519083015</ele>
        <time>2022-01-14T20:03:13.921Z</time>
      </trkpt>
      <trkpt lat="47.09003" lon="-1.27347">
        <ele>33.02802786837</ele>
        <time>2022-01-14T20:03:16.115Z</time>
      </trkpt>
      <trkpt lat="47.09006" lon="-1.27418">
        <ele>33.47186938531</ele>
        <time>2022-01-14T20:03:18.319Z</time>
      </trkpt>
      <trkpt lat="47.09005" lon="-1.27482">
        <ele>33.7319933328</ele>
        <time>2022-01-14T20:03:20.531Z</time>
      </trkpt>
      <trkpt lat="47.08999" lon="-1.2751">
        <ele>33.97080331305</ele>
        <time>2022-01-14T20:03:22.747Z</time>
      </trkpt>
      <trkpt lat="47.08999" lon="-1.27514">
        <ele>34.14768875844</ele>
        <time>2022-01-14T20:03:24.964Z</time>
      </trkpt>
      <trkpt lat="47.08997" lon="-1.27518">
        <ele>34.2601958993</ele>
        <time>2022-01-14T20:03:27.182Z</time>
      </trkpt>
      <trkpt lat="47.08992" lon="-1.27517">
        <ele>34.31152620336</ele>
        <time>2022-01-14T20:03:29.401Z</time>
      </trkpt>
      <trkpt lat="47.08992" lon="-1.27509">
        <ele>34.31638900971</ele>
        <time>2022-01-14T20:03:31.621Z</time>
      </trkpt>
      <trkpt lat="47.08996" lon="-1.27506">
        <ele>34.27935726695</ele>
        <time>2022-01-14T20:03:33.842Z</time>
      </trkpt>
      <trkpt lat="47.08999" lon="-1.27509">
        <ele>34.08052425118</ele>
        <time>2022-01-14T20:03:36.063Z</time>
      </trkpt>
      <trkpt lat="47.08999" lon="-1.27515">
        <ele>33.93115270454</ele>
        <time>2022-01-14T20:03:38.285Z</time>
      </trkpt>
      <trkpt lat="47.08996" lon="-1.27518">
        <ele>33.75352095632</ele>
        <time>2022-01-14T20:03:40.508Z</time>
      </trkpt>
      <trkpt lat="47.08994" lon="-1.27518">
        <ele>33.55621115868</ele>
        <time>2022-01-14T20:03:42.731Z</time>
      </trkpt>
      <trkpt lat="47.08992" lon="-1.27514">
        <ele>33.34219473373</ele>
        <time>2022-01-14T20:03:44.955Z</time>
      </trkpt>
      <trkpt lat="47.08992" lon="-1.27512">
        <ele>33.1202182662</ele>
        <time>2022-01-14T20:03:47.179Z</time>
      </trkpt>
      <trkpt lat="47.08985" lon="-1.27509">
        <ele>32.87981760271</ele>
        <time>2022-01-14T20:03:49.405Z</time>
      </trkpt>
      <trkpt lat="47.0896" lon="-1.27494">
        <ele>32.57351538796</ele>
        <time>2022-01-14T20:03:51.636Z</time>
      </trkpt>
      <trkpt lat="47.08949" lon="-1.27493">
        <ele>32.3094725949</ele>
        <time>2022-01-14T20:03:53.869Z</time>
      </trkpt>
      <trkpt lat="47.08938" lon="-1.27497">
        <ele>32.06489647332</ele>
        <time>2022-01-14T20:03:56.105Z</time>
      </trkpt>
      <trkpt lat="47.08925" lon="-1.2751">
        <ele>31.84352789508</ele>
        <time>2022-01-14T20:03:58.344Z</time>
      </trkpt>
      <trkpt lat="47.08914" lon="-1.27529">
        <ele>31.65647170041</ele>
        <time>2022-01-14T20:04:00.586Z</time>
      </trkpt>
      <trkpt lat="47.08903" lon="-1.27555">
        <ele>31.49283276499</ele>
        <time>2022-01-14T20:04:02.832Z</time>
      </trkpt>
      <trkpt lat="47.08894" lon="-1.27592">
        <ele>31.36047197558</ele>
        <time>2022-01-14T20:04:05.084Z</time>
      </trkpt>
      <trkpt lat="47.08887" lon="-1.27621">
        <ele>31.21318071769</ele>
        <time>2022-01-14T20:04:07.340Z</time>
      </trkpt>
      <trkpt lat="47.08884" lon="-1.27647">
        <ele>31.08257305763</ele>
        <time>2022-01-14T20:04:09.600Z</time>
      </trkpt>
      <trkpt lat="47.08882" lon="-1.27668">
        <ele>30.92544062432</ele>
        <time>2022-01-14T20:04:11.862Z</time>
      </trkpt>
      <trkpt lat="47.08876" lon="-1.27692">
        <ele>30.80213834946</ele>
        <time>2022-01-14T20:04:14.128Z</time>
      </trkpt>
      <trkpt lat="47.08867" lon="-1.2771">
        <ele>30.67279224975</ele>
        <time>2022-01-14T20:04:16.397Z</time>
      </trkpt>
      <trkpt lat="47.08841" lon="-1.27736">
        <ele>30.30413455373</ele>
        <time>2022-01-14T20:04:18.672Z</time>
      </trkpt>
      <trkpt lat="47.08819" lon="-1.2776">
        <ele>29.9797222599</ele>
        <time>2022-01-14T20:04:20.953Z</time>
      </trkpt>
      <trkpt lat="47.08832" lon="-1.27771">
        <ele>29.86753367247</ele>
        <time>2022-01-14T20:04:23.237Z</time>
      </trkpt>
      <trkpt lat="47.08846" lon="-1.27782">
        <ele>29.71130939783</ele>
        <time>2022-01-14T20:04:25.524Z</time>
      </trkpt>
      <trkpt lat="47.0887" lon="-1.27797">
        <ele>29.62321412088</ele>
        <time>2022-01-14T20:04:27.816Z</time>
      </trkpt>
      <trkpt lat="47.08898" lon="-1.2781">
        <ele>29.5258387238</ele>
        <time>2022-01-14T20:04:30.114Z</time>
      </trkpt>
      <trkpt lat="47.08929" lon="-1.27831">
        <ele>29.20459872884</ele>
        <time>2022-01-14T20:04:32.419Z</time>
      </trkpt>
      <trkpt lat="47.08945" lon="-1.27844">
        <ele>28.6902195777</ele>
        <time>2022-01-14T20:04:34.728Z</time>
      </trkpt>
      <trkpt lat="47.08922" lon="-1.2786">
        <ele>27.99851692748</ele>
        <time>2022-01-14T20:04:37.042Z</time>
      </trkpt>
      <trkpt lat="47.08917" lon="-1.27861">
        <ele>27.26662296012</ele>
        <time>2022-01-14T20:04:39.357Z</time>
      </trkpt>
      <trkpt lat="47.08886" lon="-1.27865">
        <ele>25.31873435835</ele>
        <time>2022-01-14T20:04:41.678Z</time>
      </trkpt>
      <trkpt lat="47.0886" lon="-1.27858">
        <ele>24.15403599318</ele>
        <time>2022-01-14T20:04:44.004Z</time>
      </trkpt>
      <trkpt lat="47.08832" lon="-1.27916">
        <ele>22.82202625028</ele>
        <time>2022-01-14T20:04:46.340Z</time>
      </trkpt>
      <trkpt lat="47.08822" lon="-1.27922">
        <ele>21.81390889163</ele>
        <time>2022-01-14T20:04:48.678Z</time>
      </trkpt>
      <trkpt lat="47.08794" lon="-1.27933">
        <ele>20.81583566822</ele>
        <time>2022-01-14T20:04:51.022Z</time>
      </trkpt>
      <trkpt lat="47.08787" lon="-1.27933">
        <ele>19.98157345314</ele>
        <time>2022-01-14T20:04:53.367Z</time>
      </trkpt>
      <trkpt lat="47.08765" lon="-1.27923">
        <ele>19.15644666957</ele>
        <time>2022-01-14T20:04:55.717Z</time>
      </trkpt>
      <trkpt lat="47.08737" lon="-1.27901">
        <ele>18.47043230022</ele>
        <time>2022-01-14T20:04:58.073Z</time>
      </trkpt>
      <trkpt lat="47.08726" lon="-1.27889">
        <ele>18.01497622757</ele>
        <time>2022-01-14T20:05:00.432Z</time>
      </trkpt>
      <trkpt lat="47.08723" lon="-1.27883">
        <ele>17.52476650926</ele>
        <time>2022-01-14T20:05:02.792Z</time>
      </trkpt>
      <trkpt lat="47.0872" lon="-1.27896">
        <ele>17.4631133288</ele>
        <time>2022-01-14T20:05:05.154Z</time>
      </trkpt>
      <trkpt lat="47.08717" lon="-1.27917">
        <ele>17.63133945072</ele>
        <time>2022-01-14T20:05:07.519Z</time>
      </trkpt>
      <trkpt lat="47.08714" lon="-1.27934">
        <ele>17.87828786917</ele>
        <time>2022-01-14T20:05:09.886Z</time>
      </trkpt>
      <trkpt lat="47.08708" lon="-1.27952">
        <ele>18.22645683712</ele>
        <time>2022-01-14T20:05:12.256Z</time>
      </trkpt>
      <trkpt lat="47.08683" lon="-1.28015">
        <ele>19.06085788166</ele>
        <time>2022-01-14T20:05:14.636Z</time>
      </trkpt>
      <trkpt lat="47.0866" lon="-1.27996">
        <ele>19.46529339802</ele>
        <time>2022-01-14T20:05:17.021Z</time>
      </trkpt>
      <trkpt lat="47.08645" lon="-1.27985">
        <ele>19.94225353949</ele>
        <time>2022-01-14T20:05:19.410Z</time>
      </trkpt>
      <trkpt lat="47.08583" lon="-1.27957">
        <ele>21.25482900555</ele>
        <time>2022-01-14T20:05:21.812Z</time>
      </trkpt>
      <trkpt lat="47.08574" lon="-1.27952">
        <ele>21.82113755451</ele>
        <time>2022-01-14T20:05:24.215Z</time>
      </trkpt>
      <trkpt lat="47.08569" lon="-1.27938">
        <ele>22.30508731337</ele>
        <time>2022-01-14T20:05:26.621Z</time>
      </trkpt>
      <trkpt lat="47.08556" lon="-1.27934">
        <ele>22.81792233963</ele>
        <time>2022-01-14T20:05:29.029Z</time>
      </trkpt>
      <trkpt lat="47.08552" lon="-1.27931">
        <ele>23.25852750295</ele>
        <time>2022-01-14T20:05:31.438Z</time>
      </trkpt>
      <trkpt lat="47.08553" lon="-1.27922">
        <ele>23.61014706051</ele>
        <time>2022-01-14T20:05:33.848Z</time>
      </trkpt>
      <trkpt lat="47.08558" lon="-1.2791">
        <ele>23.91316268964</ele>
        <time>2022-01-14T20:05:36.260Z</time>
      </trkpt>
      <trkpt lat="47.08563" lon="-1.27899">
        <ele>24.1730487282</ele>
        <time>2022-01-14T20:05:38.674Z</time>
      </trkpt>
      <trkpt lat="47.08564" lon="-1.27886">
        <ele>24.36757296951</ele>
        <time>2022-01-14T20:05:41.090Z</time>
      </trkpt>
      <trkpt lat="47.08563" lon="-1.27867">
        <ele>24.49639658765</ele>
        <time>2022-01-14T20:05:43.509Z</time>
      </trkpt>
      <trkpt lat="47.08554" lon="-1.27844">
        <ele>24.63867252205</ele>
        <time>2022-01-14T20:05:45.931Z</time>
      </trkpt>
      <trkpt lat="47.08544" lon="-1.27827">
        <ele>24.73576639866</ele>
        <time>2022-01-14T20:05:48.356Z</time>
      </trkpt>
      <trkpt lat="47.08533" lon="-1.27823">
        <ele>24.8243309126</ele>
        <time>2022-01-14T20:05:50.783Z</time>
      </trkpt>
      <trkpt lat="47.08501" lon="-1.27782">
        <ele>24.82910738961</ele>
        <time>2022-01-14T20:05:53.219Z</time>
      </trkpt>
      <trkpt lat="47.08452" lon="-1.27734">
        <ele>24.60151796657</ele>
        <time>2022-01-14T20:05:55.667Z</time>
      </trkpt>
      <trkpt lat="47.08437" lon="-1.2771">
        <ele>24.53505990804</ele>
        <time>2022-01-14T20:05:58.119Z</time>
      </trkpt>
      <trkpt lat="47.08424" lon="-1.27693">
        <ele>24.23433712203</ele>
        <time>2022-01-14T20:06:00.575Z</time>
      </trkpt>
      <trkpt lat="47.0841" lon="-1.2768">
        <ele>23.84723500514</ele>
        <time>2022-01-14T20:06:03.034Z</time>
      </trkpt>
      <trkpt lat="47.08394" lon="-1.27671">
        <ele>23.27701225949</ele>
        <time>2022-01-14T20:06:05.496Z</time>
      </trkpt>
      <trkpt lat="47.08376" lon="-1.27656">
        <ele>22.90524390468</ele>
        <time>2022-01-14T20:06:07.963Z</time>
      </trkpt>
      <trkpt lat="47.08363" lon="-1.27648">
        <ele>22.53181721102</ele>
        <time>2022-01-14T20:06:10.432Z</time>
      </trkpt>
      <trkpt lat="47.08341" lon="-1.27631">
        <ele>22.2536550177</ele>
        <time>2022-01-14T20:06:12.906Z</time>
      </trkpt>
      <trkpt lat="47.08317" lon="-1.27616">
        <ele>21.74205999991</ele>
        <time>2022-01-14T20:06:15.386Z</time>
      </trkpt>
      <trkpt lat="47.08279" lon="-1.27586">
        <ele>21.26127750086</ele>
        <time>2022-01-14T20:06:17.874Z</time>
      </trkpt>
      <trkpt lat="47.08274" lon="-1.27575">
        <ele>20.80520207407</ele>
        <time>2022-01-14T20:06:20.364Z</time>
      </trkpt>
      <trkpt lat="47.08267" lon="-1.27557">
        <ele>20.36468586383</ele>
        <time>2022-01-14T20:06:22.857Z</time>
      </trkpt>
      <trkpt lat="47.08265" lon="-1.27542">
        <ele>20.01770587664</ele>
        <time>2022-01-14T20:06:25.352Z</time>
      </trkpt>
      <trkpt lat="47.08266" lon="-1.27525">
        <ele>19.65240287021</ele>
        <time>2022-01-14T20:06:27.849Z</time>
      </trkpt>
      <trkpt lat="47.08269" lon="-1.2751">
        <ele>19.32671749993</ele>
        <time>2022-01-14T20:06:30.348Z</time>
      </trkpt>
      <trkpt lat="47.08275" lon="-1.2749">
        <ele>19.02993368571</ele>
        <time>2022-01-14T20:06:32.850Z</time>
      </trkpt>
      <trkpt lat="47.08282" lon="-1.27455">
        <ele>18.78566142</ele>
        <time>2022-01-14T20:06:35.357Z</time>
      </trkpt>
      <trkpt lat="47.08296" lon="-1.27401">
        <ele>18.68038137443</ele>
        <time>2022-01-14T20:06:37.872Z</time>
      </trkpt>
      <trkpt lat="47.08297" lon="-1.27388">
        <ele>18.5975946369</ele>
        <time>2022-01-14T20:06:40.389Z</time>
      </trkpt>
      <trkpt lat="47.08288" lon="-1.27363">
        <ele>18.58078483774</ele>
        <time>2022-01-14T20:06:42.910Z</time>
      </trkpt>
      <trkpt lat="47.08282" lon="-1.27357">
        <ele>18.61409416631</ele>
        <time>2022-01-14T20:06:45.432Z</time>
      </trkpt>
      <trkpt lat="47.08281" lon="-1.27297">
        <ele>18.9364231691</ele>
        <time>2022-01-14T20:06:47.963Z</time>
      </trkpt>
      <trkpt lat="47.08283" lon="-1.27238">
        <ele>19.12566825996</ele>
        <time>2022-01-14T20:06:50.502Z</time>
      </trkpt>
      <trkpt lat="47.08299" lon="-1.2719">
        <ele>19.16256894781</ele>
        <time>2022-01-14T20:06:53.048Z</time>
      </trkpt>
      <trkpt lat="47.08307" lon="-1.27163">
        <ele>19.25775168691</ele>
        <time>2022-01-14T20:06:55.598Z</time>
      </trkpt>
      <trkpt lat="47.0833" lon="-1.27095">
        <ele>19.51543930884</ele>
        <time>2022-01-14T20:06:58.158Z</time>
      </trkpt>
      <trkpt lat="47.08363" lon="-1.27075">
        <ele>19.58600409663</ele>
        <time>2022-01-14T20:07:00.726Z</time>
      </trkpt>
      <trkpt lat="47.08375" lon="-1.27061">
        <ele>19.77692216201</ele>
        <time>2022-01-14T20:07:03.297Z</time>
      </trkpt>
      <trkpt lat="47.08382" lon="-1.27048">
        <ele>20.01064471923</ele>
        <time>2022-01-14T20:07:05.870Z</time>
      </trkpt>
      <trkpt lat="47.08394" lon="-1.27001">
        <ele>20.32352256534</ele>
        <time>2022-01-14T20:07:08.450Z</time>
      </trkpt>
      <trkpt lat="47.08414" lon="-1.2697">
        <ele>20.62405112745</ele>
        <time>2022-01-14T20:07:11.036Z</time>
      </trkpt>
      <trkpt lat="47.08444" lon="-1.26924">
        <ele>20.98553112895</ele>
        <time>2022-01-14T20:07:13.630Z</time>
      </trkpt>
      <trkpt lat="47.08447" lon="-1.26917">
        <ele>21.44537787894</ele>
        <time>2022-01-14T20:07:16.225Z</time>
      </trkpt>
      <trkpt lat="47.08451" lon="-1.26902">
        <ele>21.97991444813</ele>
        <time>2022-01-14T20:07:18.823Z</time>
      </trkpt>
      <trkpt lat="47.08451" lon="-1.26867">
        <ele>22.74748474167</ele>
        <time>2022-01-14T20:07:21.425Z</time>
      </trkpt>
      <trkpt lat="47.08438" lon="-1.26826">
        <ele>23.46602772844</ele>
        <time>2022-01-14T20:07:24.034Z</time>
      </trkpt>
      <trkpt lat="47.08357" lon="-1.26725">
        <ele>24.43201113729</ele>
        <time>2022-01-14T20:07:26.664Z</time>
      </trkpt>
      <trkpt lat="47.08348" lon="-1.26705">
        <ele>25.79847211763</ele>
        <time>2022-01-14T20:07:29.297Z</time>
      </trkpt>
      <trkpt lat="47.08325" lon="-1.26663">
        <ele>26.25720797988</ele>
        <time>2022-01-14T20:07:31.937Z</time>
      </trkpt>
      <trkpt lat="47.08284" lon="-1.26613">
        <ele>27.09126983338</ele>
        <time>2022-01-14T20:07:34.588Z</time>
      </trkpt>
      <trkpt lat="47.08263" lon="-1.26593">
        <ele>27.81751309275</ele>
        <time>2022-01-14T20:07:37.244Z</time>
      </trkpt>
      <trkpt lat="47.08252" lon="-1.26593">
        <ele>28.61547542592</ele>
        <time>2022-01-14T20:07:39.902Z</time>
      </trkpt>
      <trkpt lat="47.08216" lon="-1.26624">
        <ele>29.64967073546</ele>
        <time>2022-01-14T20:07:42.569Z</time>
      </trkpt>
      <trkpt lat="47.08185" lon="-1.26649">
        <ele>30.59299044848</ele>
        <time>2022-01-14T20:07:45.243Z</time>
      </trkpt>
      <trkpt lat="47.08172" lon="-1.26644">
        <ele>31.33188531444</ele>
        <time>2022-01-14T20:07:47.920Z</time>
      </trkpt>
      <trkpt lat="47.08135" lon="-1.26631">
        <ele>32.06035057297</ele>
        <time>2022-01-14T20:07:50.604Z</time>
      </trkpt>
      <trkpt lat="47.08113" lon="-1.26629">
        <ele>32.74004255798</ele>
        <time>2022-01-14T20:07:53.293Z</time>
      </trkpt>
      <trkpt lat="47.08088" lon="-1.26625">
        <ele>33.39692880075</ele>
        <time>2022-01-14T20:07:55.987Z</time>
      </trkpt>
      <trkpt lat="47.08073" lon="-1.26629">
        <ele>34.00251908547</ele>
        <time>2022-01-14T20:07:58.684Z</time>
      </trkpt>
      <trkpt lat="47.0806" lon="-1.26638">
        <ele>34.5087592133</ele>
        <time>2022-01-14T20:08:01.383Z</time>
      </trkpt>
      <trkpt lat="47.08034" lon="-1.26667">
        <ele>34.95657197701</ele>
        <time>2022-01-14T20:08:04.089Z</time>
      </trkpt>
      <trkpt lat="47.07989" lon="-1.26711">
        <ele>35.34720121172</ele>
        <time>2022-01-14T20:08:06.806Z</time>
      </trkpt>
      <trkpt lat="47.07969" lon="-1.26729">
        <ele>35.79673595295</ele>
        <time>2022-01-14T20:08:09.528Z</time>
      </trkpt>
      <trkpt lat="47.07949" lon="-1.26741">
        <ele>36.20677198535</ele>
        <time>2022-01-14T20:08:12.254Z</time>
      </trkpt>
      <trkpt lat="47.07884" lon="-1.2678">
        <ele>36.67745775394</ele>
        <time>2022-01-14T20:08:14.994Z</time>
      </trkpt>
      <trkpt lat="47.07834" lon="-1.26807">
        <ele>37.07561583244</ele>
        <time>2022-01-14T20:08:17.745Z</time>
      </trkpt>
      <trkpt lat="47.07807" lon="-1.26738">
        <ele>37.52446737102</ele>
        <time>2022-01-14T20:08:20.506Z</time>
      </trkpt>
      <trkpt lat="47.07794" lon="-1.2671">
        <ele>37.52201046929</ele>
        <time>2022-01-14T20:08:23.272Z</time>
      </trkpt>
      <trkpt lat="47.07784" lon="-1.26689">
        <ele>37.44160389117</ele>
        <time>2022-01-14T20:08:26.042Z</time>
      </trkpt>
      <trkpt lat="47.07766" lon="-1.26643">
        <ele>37.28709126355</ele>
        <time>2022-01-14T20:08:28.819Z</time>
      </trkpt>
      <trkpt lat="47.07744" lon="-1.26583">
        <ele>36.85537332014</ele>
        <time>2022-01-14T20:08:31.605Z</time>
      </trkpt>
      <trkpt lat="47.07723" lon="-1.26524">
        <ele>36.5831012802</ele>
        <time>2022-01-14T20:08:34.400Z</time>
      </trkpt>
      <trkpt lat="47.07701" lon="-1.2647">
        <ele>35.99030703101</ele>
        <time>2022-01-14T20:08:37.204Z</time>
      </trkpt>
      <trkpt lat="47.07646" lon="-1.26363">
        <ele>35.51334163244</ele>
        <time>2022-01-14T20:08:40.026Z</time>
      </trkpt>
      <trkpt lat="47.07622" lon="-1.26317">
        <ele>34.90599757285</ele>
        <time>2022-01-14T20:08:42.856Z</time>
      </trkpt>
      <trkpt lat="47.076" lon="-1.26282">
        <ele>34.31716152003</ele>
        <time>2022-01-14T20:08:45.693Z</time>
      </trkpt>
      <trkpt lat="47.07577" lon="-1.26248">
        <ele>33.68137240996</ele>
        <time>2022-01-14T20:08:48.536Z</time>
      </trkpt>
      <trkpt lat="47.07541" lon="-1.26196">
        <ele>32.99899050224</ele>
        <time>2022-01-14T20:08:51.389Z</time>
      </trkpt>
      <trkpt lat="47.07517" lon="-1.26154">
        <ele>32.18998139356</ele>
        <time>2022-01-14T20:08:54.250Z</time>
      </trkpt>
      <trkpt lat="47.07497" lon="-1.26115">
        <ele>31.36046760477</ele>
        <time>2022-01-14T20:08:57.117Z</time>
      </trkpt>
      <trkpt lat="47.07465" lon="-1.26052">
        <ele>30.47751126917</ele>
        <time>2022-01-14T20:08:59.995Z</time>
      </trkpt>
      <trkpt lat="47.07455" lon="-1.2603">
        <ele>29.65889620368</ele>
        <time>2022-01-14T20:09:02.877Z</time>
      </trkpt>
      <trkpt lat="47.07447" lon="-1.2599">
        <ele>28.94828658273</ele>
        <time>2022-01-14T20:09:05.764Z</time>
      </trkpt>
      <trkpt lat="47.07444" lon="-1.25949">
        <ele>28.21837621807</ele>
        <time>2022-01-14T20:09:08.657Z</time>
      </trkpt>
      <trkpt lat="47.07434" lon="-1.25902">
        <ele>27.54920839799</ele>
        <time>2022-01-14T20:09:11.557Z</time>
      </trkpt>
      <trkpt lat="47.07411" lon="-1.25829">
        <ele>26.77791462175</ele>
        <time>2022-01-14T20:09:14.468Z</time>
      </trkpt>
      <trkpt lat="47.07387" lon="-1.2576">
        <ele>26.21545192745</ele>
        <time>2022-01-14T20:09:17.389Z</time>
      </trkpt>
      <trkpt lat="47.07368" lon="-1.25713">
        <ele>25.66098278036</ele>
        <time>2022-01-14T20:09:20.318Z</time>
      </trkpt>
      <trkpt lat="47.07354" lon="-1.25684">
        <ele>25.14884566277</ele>
        <time>2022-01-14T20:09:23.252Z</time>
      </trkpt>
      <trkpt lat="47.07346" lon="-1.25658">
        <ele>24.7130740315</ele>
        <time>2022-01-14T20:09:26.190Z</time>
      </trkpt>
      <trkpt lat="47.0734" lon="-1.2562">
        <ele>24.26180571032</ele>
        <time>2022-01-14T20:09:29.133Z</time>
      </trkpt>
      <trkpt lat="47.07329" lon="-1.25586">
        <ele>23.88128072532</ele>
        <time>2022-01-14T20:09:32.081Z</time>
      </trkpt>
      <trkpt lat="47.07311" lon="-1.25542">
        <ele>23.50100058689</ele>
        <time>2022-01-14T20:09:35.036Z</time>
      </trkpt>
      <trkpt lat="47.07285" lon="-1.25494">
        <ele>23.16748618598</ele>
        <time>2022-01-14T20:09:37.999Z</time>
      </trkpt>
      <trkpt lat="47.07256" lon="-1.25426">
        <ele>22.99782458443</ele>
        <time>2022-01-14T20:09:40.973Z</time>
      </trkpt>
      <trkpt lat="47.07235" lon="-1.25396">
        <ele>22.88334627451</ele>
        <time>2022-01-14T20:09:43.953Z</time>
      </trkpt>
      <trkpt lat="47.07245" lon="-1.25391">
        <ele>22.79780503686</ele>
        <time>2022-01-14T20:09:46.935Z</time>
      </trkpt>
      <trkpt lat="47.07229" lon="-1.25399">
        <ele>22.80069912062</ele>
        <time>2022-01-14T20:09:49.921Z</time>
      </trkpt>
      <trkpt lat="47.07175" lon="-1.25335">
        <ele>22.91880002005</ele>
        <time>2022-01-14T20:09:52.921Z</time>
      </trkpt>
      <trkpt lat="47.07095" lon="-1.25252">
        <ele>22.98897982234</ele>
        <time>2022-01-14T20:09:55.940Z</time>
      </trkpt>
      <trkpt lat="47.07066" lon="-1.25224">
        <ele>23.20831674192</ele>
        <time>2022-01-14T20:09:58.966Z</time>
      </trkpt>
      <trkpt lat="47.07033" lon="-1.25204">
        <ele>23.51713983178</ele>
        <time>2022-01-14T20:10:01.999Z</time>
      </trkpt>
      <trkpt lat="47.06984" lon="-1.25177">
        <ele>23.74806981894</ele>
        <time>2022-01-14T20:10:05.043Z</time>
      </trkpt>
      <trkpt lat="47.06962" lon="-1.25161">
        <ele>24.0369578008</ele>
        <time>2022-01-14T20:10:08.092Z</time>
      </trkpt>
      <trkpt lat="47.06952" lon="-1.25151">
        <ele>24.38935844461</ele>
        <time>2022-01-14T20:10:11.143Z</time>
      </trkpt>
      <trkpt lat="47.06943" lon="-1.25134">
        <ele>24.79300560609</ele>
        <time>2022-01-14T20:10:14.197Z</time>
      </trkpt>
      <trkpt lat="47.06937" lon="-1.25122">
        <ele>25.23221901171</ele>
        <time>2022-01-14T20:10:17.253Z</time>
      </trkpt>
      <trkpt lat="47.06902" lon="-1.25063">
        <ele>25.73123032781</ele>
        <time>2022-01-14T20:10:20.320Z</time>
      </trkpt>
      <trkpt lat="47.06856" lon="-1.25">
        <ele>26.76185500375</ele>
        <time>2022-01-14T20:10:23.399Z</time>
      </trkpt>
      <trkpt lat="47.0682" lon="-1.24942">
        <ele>27.27679817998</ele>
        <time>2022-01-14T20:10:26.489Z</time>
      </trkpt>
      <trkpt lat="47.06808" lon="-1.24927">
        <ele>27.82860145758</ele>
        <time>2022-01-14T20:10:29.582Z</time>
      </trkpt>
      <trkpt lat="47.06796" lon="-1.24917">
        <ele>28.42928696083</ele>
        <time>2022-01-14T20:10:32.678Z</time>
      </trkpt>
      <trkpt lat="47.06779" lon="-1.24909">
        <ele>29.09636547692</ele>
        <time>2022-01-14T20:10:35.778Z</time>
      </trkpt>
      <trkpt lat="47.0675" lon="-1.24902">
        <ele>29.83906121396</ele>
        <time>2022-01-14T20:10:38.884Z</time>
      </trkpt>
      <trkpt lat="47.06728" lon="-1.2489">
        <ele>30.48042151975</ele>
        <time>2022-01-14T20:10:41.994Z</time>
      </trkpt>
      <trkpt lat="47.06681" lon="-1.24853">
        <ele>31.14300549418</ele>
        <time>2022-01-14T20:10:45.115Z</time>
      </trkpt>
      <trkpt lat="47.0666" lon="-1.24836">
        <ele>31.66009558455</ele>
        <time>2022-01-14T20:10:48.241Z</time>
      </trkpt>
      <trkpt lat="47.06637" lon="-1.24816">
        <ele>32.23653270577</ele>
        <time>2022-01-14T20:10:51.372Z</time>
      </trkpt>
      <trkpt lat="47.06603" lon="-1.24776">
        <ele>32.71169674907</ele>
        <time>2022-01-14T20:10:54.512Z</time>
      </trkpt>
      <trkpt lat="47.06575" lon="-1.24728">
        <ele>33.12276554719</ele>
        <time>2022-01-14T20:10:57.660Z</time>
      </trkpt>
      <trkpt lat="47.06571" lon="-1.24721">
        <ele>33.50803852885</ele>
        <time>2022-01-14T20:11:00.810Z</time>
      </trkpt>
      <trkpt lat="47.06557" lon="-1.24701">
        <ele>34.21828515529</ele>
        <time>2022-01-14T20:11:03.964Z</time>
      </trkpt>
      <trkpt lat="47.06556" lon="-1.24686">
        <ele>34.53453406148</ele>
        <time>2022-01-14T20:11:07.120Z</time>
      </trkpt>
      <trkpt lat="47.06527" lon="-1.24596">
        <ele>34.76131794595</ele>
        <time>2022-01-14T20:11:10.289Z</time>
      </trkpt>
      <trkpt lat="47.06522" lon="-1.2458">
        <ele>35.07732989904</ele>
        <time>2022-01-14T20:11:13.461Z</time>
      </trkpt>
      <trkpt lat="47.06509" lon="-1.2457">
        <ele>35.43399231038</ele>
        <time>2022-01-14T20:11:16.636Z</time>
      </trkpt>
      <trkpt lat="47.06486" lon="-1.24549">
        <ele>35.85873667546</ele>
        <time>2022-01-14T20:11:19.816Z</time>
      </trkpt>
      <trkpt lat="47.06467" lon="-1.24525">
        <ele>36.32917793415</ele>
        <time>2022-01-14T20:11:23.001Z</time>
      </trkpt>
      <trkpt lat="47.06448" lon="-1.24499">
        <ele>36.80340449771</ele>
        <time>2022-01-14T20:11:26.191Z</time>
      </trkpt>
      <trkpt lat="47.06431" lon="-1.24475">
        <ele>37.29742854199</ele>
        <time>2022-01-14T20:11:29.386Z</time>
      </trkpt>
      <trkpt lat="47.06419" lon="-1.2445">
        <ele>37.92168456236</ele>
        <time>2022-01-14T20:11:32.585Z</time>
      </trkpt>
      <trkpt lat="47.06405" lon="-1.24404">
        <ele>38.73552376942</ele>
        <time>2022-01-14T20:11:35.791Z</time>
      </trkpt>
      <trkpt lat="47.06396" lon="-1.24376">
        <ele>39.46333555941</ele>
        <time>2022-01-14T20:11:39.001Z</time>
      </trkpt>
      <trkpt lat="47.06383" lon="-1.2434">
        <ele>41.02771677371</ele>
        <time>2022-01-14T20:11:42.217Z</time>
      </trkpt>
      <trkpt lat="47.06372" lon="-1.24316">
        <ele>41.87497878239</ele>
        <time>2022-01-14T20:11:45.437Z</time>
      </trkpt>
      <trkpt lat="47.06355" lon="-1.2429">
        <ele>42.77946343347</ele>
        <time>2022-01-14T20:11:48.662Z</time>
      </trkpt>
      <trkpt lat="47.0632" lon="-1.24251">
        <ele>43.80990591004</ele>
        <time>2022-01-14T20:11:51.896Z</time>
      </trkpt>
      <trkpt lat="47.06228" lon="-1.24151">
        <ele>44.79326073796</ele>
        <time>2022-01-14T20:11:55.152Z</time>
      </trkpt>
      <trkpt lat="47.06144" lon="-1.24054">
        <ele>45.98010002334</ele>
        <time>2022-01-14T20:11:58.430Z</time>
      </trkpt>
      <trkpt lat="47.06095" lon="-1.23993">
        <ele>47.17238016097</ele>
        <time>2022-01-14T20:12:01.721Z</time>
      </trkpt>
      <trkpt lat="47.06044" lon="-1.23924">
        <ele>49.32952217141</ele>
        <time>2022-01-14T20:12:05.026Z</time>
      </trkpt>
      <trkpt lat="47.06012" lon="-1.23876">
        <ele>50.40257278837</ele>
        <time>2022-01-14T20:12:08.340Z</time>
      </trkpt>
      <trkpt lat="47.06002" lon="-1.23855">
        <ele>51.46371046896</ele>
        <time>2022-01-14T20:12:11.657Z</time>
      </trkpt>
      <trkpt lat="47.05978" lon="-1.23782">
        <ele>52.53031323686</ele>
        <time>2022-01-14T20:12:14.985Z</time>
      </trkpt>
      <trkpt lat="47.0593" lon="-1.23642">
        <ele>53.83169638278</ele>
        <time>2022-01-14T20:12:18.335Z</time>
      </trkpt>
      <trkpt lat="47.05908" lon="-1.23574">
        <ele>54.84540226021</ele>
        <time>2022-01-14T20:12:21.695Z</time>
      </trkpt>
      <trkpt lat="47.05887" lon="-1.23497">
        <ele>55.59787820334</ele>
        <time>2022-01-14T20:12:25.066Z</time>
      </trkpt>
      <trkpt lat="47.05868" lon="-1.23423">
        <ele>56.39347402337</ele>
        <time>2022-01-14T20:12:28.448Z</time>
      </trkpt>
      <trkpt lat="47.05862" lon="-1.234">
        <ele>57.35216570623</ele>
        <time>2022-01-14T20:12:31.834Z</time>
      </trkpt>
      <trkpt lat="47.05824" lon="-1.2329">
        <ele>57.74438001376</ele>
        <time>2022-01-14T20:12:35.237Z</time>
      </trkpt>
      <trkpt lat="47.05763" lon="-1.23119">
        <ele>57.93198529467</ele>
        <time>2022-01-14T20:12:38.666Z</time>
      </trkpt>
      <trkpt lat="47.05717" lon="-1.22989">
        <ele>57.94211410086</ele>
        <time>2022-01-14T20:12:42.115Z</time>
      </trkpt>
      <trkpt lat="47.05702" lon="-1.22956">
        <ele>57.72857630295</ele>
        <time>2022-01-14T20:12:45.569Z</time>
      </trkpt>
      <trkpt lat="47.05676" lon="-1.22913">
        <ele>57.35479947007</ele>
        <time>2022-01-14T20:12:49.031Z</time>
      </trkpt>
      <trkpt lat="47.05671" lon="-1.22899">
        <ele>56.83298298483</ele>
        <time>2022-01-14T20:12:52.495Z</time>
      </trkpt>
      <trkpt lat="47.05673" lon="-1.22886">
        <ele>55.36828442014</ele>
        <time>2022-01-14T20:12:55.961Z</time>
      </trkpt>
      <trkpt lat="47.05702" lon="-1.22852">
        <ele>54.40424280865</ele>
        <time>2022-01-14T20:12:59.435Z</time>
      </trkpt>
      <trkpt lat="47.05734" lon="-1.22818">
        <ele>53.34285315374</ele>
        <time>2022-01-14T20:13:02.917Z</time>
      </trkpt>
      <trkpt lat="47.05748" lon="-1.22741">
        <ele>52.12955042499</ele>
        <time>2022-01-14T20:13:06.409Z</time>
      </trkpt>
      <trkpt lat="47.0576" lon="-1.22692">
        <ele>50.86399339469</ele>
        <time>2022-01-14T20:13:09.909Z</time>
      </trkpt>
      <trkpt lat="47.05784" lon="-1.2261">
        <ele>49.43194554953</ele>
        <time>2022-01-14T20:13:13.421Z</time>
      </trkpt>
      <trkpt lat="47.05794" lon="-1.22576">
        <ele>48.12252580436</ele>
        <time>2022-01-14T20:13:16.938Z</time>
      </trkpt>
      <trkpt lat="47.05795" lon="-1.22567">
        <ele>47.06197432646</ele>
        <time>2022-01-14T20:13:20.456Z</time>
      </trkpt>
      <trkpt lat="47.05791" lon="-1.22553">
        <ele>46.04195379621</ele>
        <time>2022-01-14T20:13:23.976Z</time>
      </trkpt>
      <trkpt lat="47.05784" lon="-1.22542">
        <ele>44.5447614984</ele>
        <time>2022-01-14T20:13:27.498Z</time>
      </trkpt>
      <trkpt lat="47.05777" lon="-1.22539">
        <ele>44.02891893639</ele>
        <time>2022-01-14T20:13:31.022Z</time>
      </trkpt>
      <trkpt lat="47.0577" lon="-1.22539">
        <ele>43.68940138178</ele>
        <time>2022-01-14T20:13:34.547Z</time>
      </trkpt>
      <trkpt lat="47.05763" lon="-1.22544">
        <ele>43.53887642176</ele>
        <time>2022-01-14T20:13:38.074Z</time>
      </trkpt>
      <trkpt lat="47.05755" lon="-1.22556">
        <ele>43.58039219323</ele>
        <time>2022-01-14T20:13:41.603Z</time>
      </trkpt>
      <trkpt lat="47.05746" lon="-1.22563">
        <ele>43.67432023434</ele>
        <time>2022-01-14T20:13:45.134Z</time>
      </trkpt>
      <trkpt lat="47.0573" lon="-1.2257">
        <ele>43.90560090732</ele>
        <time>2022-01-14T20:13:48.668Z</time>
      </trkpt>
      <trkpt lat="47.05717" lon="-1.22582">
        <ele>44.21971705373</ele>
        <time>2022-01-14T20:13:52.205Z</time>
      </trkpt>
      <trkpt lat="47.05708" lon="-1.22602">
        <ele>44.57957480346</ele>
        <time>2022-01-14T20:13:55.746Z</time>
      </trkpt>
      <trkpt lat="47.05701" lon="-1.22614">
        <ele>44.87018115574</ele>
        <time>2022-01-14T20:13:59.289Z</time>
      </trkpt>
      <trkpt lat="47.05696" lon="-1.2262">
        <ele>45.05383738169</ele>
        <time>2022-01-14T20:14:02.833Z</time>
      </trkpt>
      <trkpt lat="47.05692" lon="-1.2262">
        <ele>45.10830962266</ele>
        <time>2022-01-14T20:14:06.378Z</time>
      </trkpt>
      <trkpt lat="47.05688" lon="-1.22618">
        <ele>45.05299243655</ele>
        <time>2022-01-14T20:14:09.924Z</time>
      </trkpt>
      <trkpt lat="47.05686" lon="-1.22613">
        <ele>44.8860988433</ele>
        <time>2022-01-14T20:14:13.470Z</time>
      </trkpt>
      <trkpt lat="47.05688" lon="-1.22596">
        <ele>44.53164384614</ele>
        <time>2022-01-14T20:14:17.019Z</time>
      </trkpt>
      <trkpt lat="47.05691" lon="-1.22577">
        <ele>44.04979981819</ele>
        <time>2022-01-14T20:14:20.571Z</time>
      </trkpt>
      <trkpt lat="47.05694" lon="-1.22557">
        <ele>43.44022425891</ele>
        <time>2022-01-14T20:14:24.125Z</time>
      </trkpt>
      <trkpt lat="47.05692" lon="-1.22539">
        <ele>42.73429782885</ele>
        <time>2022-01-14T20:14:27.682Z</time>
      </trkpt>
      <trkpt lat="47.05688" lon="-1.22508">
        <ele>41.85841210403</ele>
        <time>2022-01-14T20:14:31.243Z</time>
      </trkpt>
      <trkpt lat="47.05678" lon="-1.22491">
        <ele>41.07396248795</ele>
        <time>2022-01-14T20:14:34.807Z</time>
      </trkpt>
      <trkpt lat="47.0567" lon="-1.22475">
        <ele>40.25525965681</ele>
        <time>2022-01-14T20:14:38.374Z</time>
      </trkpt>
      <trkpt lat="47.05664" lon="-1.22445">
        <ele>39.31464875789</ele>
        <time>2022-01-14T20:14:41.945Z</time>
      </trkpt>
      <trkpt lat="47.05661" lon="-1.2243">
        <ele>38.41422201086</ele>
        <time>2022-01-14T20:14:45.518Z</time>
      </trkpt>
      <trkpt lat="47.05666" lon="-1.22427">
        <ele>37.55571097152</ele>
        <time>2022-01-14T20:14:49.092Z</time>
      </trkpt>
      <trkpt lat="47.05677" lon="-1.22425">
        <ele>36.68840567816</ele>
        <time>2022-01-14T20:14:52.669Z</time>
      </trkpt>
      <trkpt lat="47.05691" lon="-1.22433">
        <ele>35.8874765993</ele>
        <time>2022-01-14T20:14:56.249Z</time>
      </trkpt>
      <trkpt lat="47.05699" lon="-1.22439">
        <ele>35.11626576299</ele>
        <time>2022-01-14T20:14:59.830Z</time>
      </trkpt>
      <trkpt lat="47.05706" lon="-1.22292">
        <ele>33.50689923458</ele>
        <time>2022-01-14T20:15:03.432Z</time>
      </trkpt>
      <trkpt lat="47.05575" lon="-1.22104">
        <ele>32.16565578324</ele>
        <time>2022-01-14T20:15:07.070Z</time>
      </trkpt>
      <trkpt lat="47.05466" lon="-1.22111">
        <ele>31.1298121555</ele>
        <time>2022-01-14T20:15:10.730Z</time>
      </trkpt>
      <trkpt lat="47.05394" lon="-1.22044">
        <ele>29.95287980617</ele>
        <time>2022-01-14T20:15:14.407Z</time>
      </trkpt>
      <trkpt lat="47.05364" lon="-1.2182">
        <ele>28.97078079883</ele>
        <time>2022-01-14T20:15:18.115Z</time>
      </trkpt>
      <trkpt lat="47.05305" lon="-1.21624">
        <ele>28.31009566088</ele>
        <time>2022-01-14T20:15:21.853Z</time>
      </trkpt>
      <trkpt lat="47.05286" lon="-1.21575">
        <ele>28.1359697531</ele>
        <time>2022-01-14T20:15:25.598Z</time>
      </trkpt>
      <trkpt lat="47.05253" lon="-1.21582">
        <ele>28.39534747422</ele>
        <time>2022-01-14T20:15:29.350Z</time>
      </trkpt>
      <trkpt lat="47.05212" lon="-1.21575">
        <ele>29.37966137075</ele>
        <time>2022-01-14T20:15:33.110Z</time>
      </trkpt>
      <trkpt lat="47.05161" lon="-1.21516">
        <ele>30.6000943109</ele>
        <time>2022-01-14T20:15:36.883Z</time>
      </trkpt>
      <trkpt lat="47.05121" lon="-1.21464">
        <ele>32.42746593886</ele>
        <time>2022-01-14T20:15:40.667Z</time>
      </trkpt>
      <trkpt lat="47.05068" lon="-1.21392">
        <ele>34.3667095027</ele>
        <time>2022-01-14T20:15:44.466Z</time>
      </trkpt>
      <trkpt lat="47.05029" lon="-1.21333">
        <ele>36.96078703604</ele>
        <time>2022-01-14T20:15:48.276Z</time>
      </trkpt>
      <trkpt lat="47.05018" lon="-1.21239">
        <ele>39.02709084162</ele>
        <time>2022-01-14T20:15:52.099Z</time>
      </trkpt>
      <trkpt lat="47.05013" lon="-1.21138">
        <ele>41.68515673315</ele>
        <time>2022-01-14T20:15:55.936Z</time>
      </trkpt>
      <trkpt lat="47.04971" lon="-1.21089">
        <ele>44.60529505073</ele>
        <time>2022-01-14T20:15:59.784Z</time>
      </trkpt>
      <trkpt lat="47.04968" lon="-1.21091">
        <ele>47.4972958078</ele>
        <time>2022-01-14T20:16:03.632Z</time>
      </trkpt>
      <trkpt lat="47.04913" lon="-1.21198">
        <ele>49.5579875225</ele>
        <time>2022-01-14T20:16:07.499Z</time>
      </trkpt>
      <trkpt lat="47.04904" lon="-1.21234">
        <ele>51.10136048376</ele>
        <time>2022-01-14T20:16:11.371Z</time>
      </trkpt>
      <trkpt lat="47.04897" lon="-1.21279">
        <ele>52.64868416059</ele>
        <time>2022-01-14T20:16:15.249Z</time>
      </trkpt>
      <trkpt lat="47.04889" lon="-1.21308">
        <ele>55.15446972789</ele>
        <time>2022-01-14T20:16:19.131Z</time>
      </trkpt>
      <trkpt lat="47.04876" lon="-1.21326">
        <ele>56.22096607462</ele>
        <time>2022-01-14T20:16:23.017Z</time>
      </trkpt>
      <trkpt lat="47.04818" lon="-1.21387">
        <ele>57.25717058111</ele>
        <time>2022-01-14T20:16:26.917Z</time>
      </trkpt>
      <trkpt lat="47.04816" lon="-1.21391">
        <ele>58.03641013234</ele>
        <time>2022-01-14T20:16:30.818Z</time>
      </trkpt>
      <trkpt lat="47.04812" lon="-1.21413">
        <ele>59.24732347307</ele>
        <time>2022-01-14T20:16:34.722Z</time>
      </trkpt>
      <trkpt lat="47.04788" lon="-1.21391">
        <ele>59.57146350266</ele>
        <time>2022-01-14T20:16:38.632Z</time>
      </trkpt>
      <trkpt lat="47.04774" lon="-1.21375">
        <ele>59.78814244951</ele>
        <time>2022-01-14T20:16:42.545Z</time>
      </trkpt>
      <trkpt lat="47.04762" lon="-1.21368">
        <ele>59.96030286822</ele>
        <time>2022-01-14T20:16:46.461Z</time>
      </trkpt>
      <trkpt lat="47.04748" lon="-1.21364">
        <ele>60.08399645615</ele>
        <time>2022-01-14T20:16:50.380Z</time>
      </trkpt>
      <trkpt lat="47.04738" lon="-1.21357">
        <ele>60.1464659438</ele>
        <time>2022-01-14T20:16:54.301Z</time>
      </trkpt>
      <trkpt lat="47.04731" lon="-1.21344">
        <ele>60.1517806684</ele>
        <time>2022-01-14T20:16:58.224Z</time>
      </trkpt>
      <trkpt lat="47.04729" lon="-1.21334">
        <ele>60.12739236216</ele>
        <time>2022-01-14T20:17:02.149Z</time>
      </trkpt>
      <trkpt lat="47.04727" lon="-1.21326">
        <ele>60.11090349665</ele>
        <time>2022-01-14T20:17:06.075Z</time>
      </trkpt>
      <trkpt lat="47.04702" lon="-1.2129">
        <ele>60.13497453473</ele>
        <time>2022-01-14T20:17:10.008Z</time>
      </trkpt>
      <trkpt lat="47.04651" lon="-1.21218">
        <ele>60.09132886754</ele>
        <time>2022-01-14T20:17:13.955Z</time>
      </trkpt>
      <trkpt lat="47.04631" lon="-1.21199">
        <ele>60.25204698315</ele>
        <time>2022-01-14T20:17:17.907Z</time>
      </trkpt>
      <trkpt lat="47.04588" lon="-1.21156">
        <ele>60.58688524835</ele>
        <time>2022-01-14T20:17:21.869Z</time>
      </trkpt>
      <trkpt lat="47.04585" lon="-1.21153">
        <ele>61.13057506688</ele>
        <time>2022-01-14T20:17:25.832Z</time>
      </trkpt>
      <trkpt lat="47.04575" lon="-1.21173">
        <ele>61.52240376602</ele>
        <time>2022-01-14T20:17:29.798Z</time>
      </trkpt>
      <trkpt lat="47.04571" lon="-1.2118">
        <ele>61.97608663866</ele>
        <time>2022-01-14T20:17:33.766Z</time>
      </trkpt>
      <trkpt lat="47.04562" lon="-1.21186">
        <ele>62.51739828677</ele>
        <time>2022-01-14T20:17:37.735Z</time>
      </trkpt>
      <trkpt lat="47.04556" lon="-1.21187">
        <ele>63.13322284459</ele>
        <time>2022-01-14T20:17:41.706Z</time>
      </trkpt>
      <trkpt lat="47.04546" lon="-1.21184">
        <ele>63.82984185649</ele>
        <time>2022-01-14T20:17:45.679Z</time>
      </trkpt>
      <trkpt lat="47.04522" lon="-1.2117">
        <ele>64.64786441824</ele>
        <time>2022-01-14T20:17:49.657Z</time>
      </trkpt>
      <trkpt lat="47.04503" lon="-1.2116">
        <ele>65.50038541961</ele>
        <time>2022-01-14T20:17:53.639Z</time>
      </trkpt>
      <trkpt lat="47.04489" lon="-1.21153">
        <ele>66.37138242598</ele>
        <time>2022-01-14T20:17:57.624Z</time>
      </trkpt>
      <trkpt lat="47.0449" lon="-1.21124">
        <ele>67.27961136254</ele>
        <time>2022-01-14T20:18:01.613Z</time>
      </trkpt>
      <trkpt lat="47.04492" lon="-1.21092">
        <ele>68.20722279369</ele>
        <time>2022-01-14T20:18:05.606Z</time>
      </trkpt>
      <trkpt lat="47.04495" lon="-1.21077">
        <ele>69.03723441338</ele>
        <time>2022-01-14T20:18:09.601Z</time>
      </trkpt>
      <trkpt lat="47.045" lon="-1.21058">
        <ele>69.80013697893</ele>
        <time>2022-01-14T20:18:13.599Z</time>
      </trkpt>
      <trkpt lat="47.04506" lon="-1.21044">
        <ele>70.430456133</ele>
        <time>2022-01-14T20:18:17.599Z</time>
      </trkpt>
      <trkpt lat="47.04507" lon="-1.21039">
        <ele>70.99725923654</ele>
        <time>2022-01-14T20:18:21.600Z</time>
      </trkpt>
      <trkpt lat="47.04505" lon="-1.21028">
        <ele>71.48394808322</ele>
        <time>2022-01-14T20:18:25.603Z</time>
      </trkpt>
      <trkpt lat="47.04481" lon="-1.20995">
        <ele>71.97718079028</ele>
        <time>2022-01-14T20:18:29.612Z</time>
      </trkpt>
      <trkpt lat="47.04464" lon="-1.20979">
        <ele>72.04829823116</ele>
        <time>2022-01-14T20:18:33.625Z</time>
      </trkpt>
      <trkpt lat="47.04394" lon="-1.20943">
        <ele>71.74219501712</ele>
        <time>2022-01-14T20:18:37.653Z</time>
      </trkpt>
      <trkpt lat="47.04354" lon="-1.20935">
        <ele>71.18427057269</ele>
        <time>2022-01-14T20:18:41.689Z</time>
      </trkpt>
      <trkpt lat="47.04349" lon="-1.20931">
        <ele>70.41894387169</ele>
        <time>2022-01-14T20:18:45.726Z</time>
      </trkpt>
      <trkpt lat="47.04331" lon="-1.20905">
        <ele>69.39572594439</ele>
        <time>2022-01-14T20:18:49.768Z</time>
      </trkpt>
      <trkpt lat="47.04309" lon="-1.20864">
        <ele>68.03884639667</ele>
        <time>2022-01-14T20:18:53.818Z</time>
      </trkpt>
      <trkpt lat="47.0428" lon="-1.208">
        <ele>66.38082353018</ele>
        <time>2022-01-14T20:18:57.878Z</time>
      </trkpt>
      <trkpt lat="47.04271" lon="-1.20771">
        <ele>64.5859537401</ele>
        <time>2022-01-14T20:19:01.942Z</time>
      </trkpt>
      <trkpt lat="47.04248" lon="-1.20664">
        <ele>62.6292345401</ele>
        <time>2022-01-14T20:19:06.022Z</time>
      </trkpt>
      <trkpt lat="47.04234" lon="-1.20561">
        <ele>60.20007832773</ele>
        <time>2022-01-14T20:19:10.116Z</time>
      </trkpt>
      <trkpt lat="47.0423" lon="-1.20509">
        <ele>57.74830065766</ele>
        <time>2022-01-14T20:19:14.217Z</time>
      </trkpt>
      <trkpt lat="47.04229" lon="-1.20485">
        <ele>52.84944168354</ele>
        <time>2022-01-14T20:19:18.322Z</time>
      </trkpt>
      <trkpt lat="47.04219" lon="-1.20459">
        <ele>50.21365902085</ele>
        <time>2022-01-14T20:19:22.431Z</time>
      </trkpt>
      <trkpt lat="47.04194" lon="-1.20395">
        <ele>47.24313947959</ele>
        <time>2022-01-14T20:19:26.550Z</time>
      </trkpt>
      <trkpt lat="47.04173" lon="-1.2032">
        <ele>44.03636442447</ele>
        <time>2022-01-14T20:19:30.680Z</time>
      </trkpt>
      <trkpt lat="47.04176" lon="-1.20304">
        <ele>41.70611852916</ele>
        <time>2022-01-14T20:19:34.812Z</time>
      </trkpt>
      <trkpt lat="47.0418" lon="-1.20283">
        <ele>39.5900245476</ele>
        <time>2022-01-14T20:19:38.947Z</time>
      </trkpt>
      <trkpt lat="47.04184" lon="-1.2027">
        <ele>37.70820328887</ele>
        <time>2022-01-14T20:19:43.084Z</time>
      </trkpt>
      <trkpt lat="47.04185" lon="-1.20257">
        <ele>36.0423083805</ele>
        <time>2022-01-14T20:19:47.223Z</time>
      </trkpt>
      <trkpt lat="47.04184" lon="-1.20237">
        <ele>34.59296324741</ele>
        <time>2022-01-14T20:19:51.365Z</time>
      </trkpt>
      <trkpt lat="47.0418" lon="-1.20215">
        <ele>32.68490044323</ele>
        <time>2022-01-14T20:19:55.510Z</time>
      </trkpt>
      <trkpt lat="47.04181" lon="-1.20209">
        <ele>32.15708204454</ele>
        <time>2022-01-14T20:19:59.656Z</time>
      </trkpt>
      <trkpt lat="47.04107" lon="-1.20162">
        <ele>31.8468678277</ele>
        <time>2022-01-14T20:20:03.818Z</time>
      </trkpt>
      <trkpt lat="47.04061" lon="-1.20104">
        <ele>32.64171021636</ele>
        <time>2022-01-14T20:20:07.992Z</time>
      </trkpt>
      <trkpt lat="47.04059" lon="-1.19964">
        <ele>34.63384584928</ele>
        <time>2022-01-14T20:20:12.185Z</time>
      </trkpt>
      <trkpt lat="47.04059" lon="-1.19964">
        <ele>36.8329131744</ele>
        <time>2022-01-14T20:20:16.378Z</time>
      </trkpt>
      <trkpt lat="47.0406" lon="-1.19925">
        <ele>38.20511254893</ele>
        <time>2022-01-14T20:20:20.576Z</time>
      </trkpt>
      <trkpt lat="47.04059" lon="-1.19895">
        <ele>39.72420202739</ele>
        <time>2022-01-14T20:20:24.778Z</time>
      </trkpt>
      <trkpt lat="47.0405" lon="-1.19807">
        <ele>41.39576659438</ele>
        <time>2022-01-14T20:20:28.993Z</time>
      </trkpt>
      <trkpt lat="47.04046" lon="-1.19773">
        <ele>43.42630720923</ele>
        <time>2022-01-14T20:20:33.212Z</time>
      </trkpt>
      <trkpt lat="47.0404" lon="-1.19742">
        <ele>45.53595888838</ele>
        <time>2022-01-14T20:20:37.436Z</time>
      </trkpt>
      <trkpt lat="47.0404" lon="-1.19733">
        <ele>47.76709797175</ele>
        <time>2022-01-14T20:20:41.661Z</time>
      </trkpt>
      <trkpt lat="47.04044" lon="-1.19722">
        <ele>50.19042486544</ele>
        <time>2022-01-14T20:20:45.888Z</time>
      </trkpt>
      <trkpt lat="47.04061" lon="-1.19701">
        <ele>52.88908658836</ele>
        <time>2022-01-14T20:20:50.119Z</time>
      </trkpt>
      <trkpt lat="47.04161" lon="-1.1955">
        <ele>56.35593841506</ele>
        <time>2022-01-14T20:20:54.379Z</time>
      </trkpt>
      <trkpt lat="47.04167" lon="-1.19536">
        <ele>58.56768186846</ele>
        <time>2022-01-14T20:20:58.641Z</time>
      </trkpt>
      <trkpt lat="47.04168" lon="-1.19512">
        <ele>60.74533609285</ele>
        <time>2022-01-14T20:21:02.906Z</time>
      </trkpt>
      <trkpt lat="47.04178" lon="-1.1948">
        <ele>62.84967575632</ele>
        <time>2022-01-14T20:21:07.176Z</time>
      </trkpt>
      <trkpt lat="47.04188" lon="-1.19451">
        <ele>64.71811074504</ele>
        <time>2022-01-14T20:21:11.451Z</time>
      </trkpt>
      <trkpt lat="47.04199" lon="-1.19422">
        <ele>66.47713393444</ele>
        <time>2022-01-14T20:21:15.730Z</time>
      </trkpt>
      <trkpt lat="47.04207" lon="-1.19382">
        <ele>68.16751735934</ele>
        <time>2022-01-14T20:21:20.015Z</time>
      </trkpt>
      <trkpt lat="47.04234" lon="-1.19259">
        <ele>69.92418745739</ele>
        <time>2022-01-14T20:21:24.318Z</time>
      </trkpt>
      <trkpt lat="47.04254" lon="-1.19183">
        <ele>71.33085801151</ele>
        <time>2022-01-14T20:21:28.632Z</time>
      </trkpt>
      <trkpt lat="47.0427" lon="-1.19108">
        <ele>72.53831333991</ele>
        <time>2022-01-14T20:21:32.957Z</time>
      </trkpt>
      <trkpt lat="47.04284" lon="-1.19021">
        <ele>73.68111823427</ele>
        <time>2022-01-14T20:21:37.294Z</time>
      </trkpt>
      <trkpt lat="47.04301" lon="-1.19032">
        <ele>75.38965203041</ele>
        <time>2022-01-14T20:21:41.634Z</time>
      </trkpt>
      <trkpt lat="47.04307" lon="-1.19023">
        <ele>76.12050523692</ele>
        <time>2022-01-14T20:21:45.976Z</time>
      </trkpt>
      <trkpt lat="47.04312" lon="-1.19019">
        <ele>76.76974946218</ele>
        <time>2022-01-14T20:21:50.319Z</time>
      </trkpt>
      <trkpt lat="47.04397" lon="-1.18996">
        <ele>77.50648648984</ele>
        <time>2022-01-14T20:21:54.680Z</time>
      </trkpt>
      <trkpt lat="47.04456" lon="-1.18981">
        <ele>77.95037894937</ele>
        <time>2022-01-14T20:21:59.053Z</time>
      </trkpt>
      <trkpt lat="47.04457" lon="-1.18973">
        <ele>78.27946768803</ele>
        <time>2022-01-14T20:22:03.427Z</time>
      </trkpt>
      <trkpt lat="47.04461" lon="-1.18956">
        <ele>78.5585707941</ele>
        <time>2022-01-14T20:22:07.803Z</time>
      </trkpt>
      <trkpt lat="47.04466" lon="-1.18939">
        <ele>78.78142153088</ele>
        <time>2022-01-14T20:22:12.182Z</time>
      </trkpt>
      <trkpt lat="47.04481" lon="-1.18897">
        <ele>78.974640697</ele>
        <time>2022-01-14T20:22:16.567Z</time>
      </trkpt>
      <trkpt lat="47.04512" lon="-1.18818">
        <ele>79.12478658364</ele>
        <time>2022-01-14T20:22:20.965Z</time>
      </trkpt>
      <trkpt lat="47.04555" lon="-1.18837">
        <ele>79.06429471467</ele>
        <time>2022-01-14T20:22:25.372Z</time>
      </trkpt>
      <trkpt lat="47.04562" lon="-1.18842">
        <ele>78.99438538342</ele>
        <time>2022-01-14T20:22:29.780Z</time>
      </trkpt>
      <trkpt lat="47.04568" lon="-1.18853">
        <ele>78.89834143711</ele>
        <time>2022-01-14T20:22:34.190Z</time>
      </trkpt>
      <trkpt lat="47.04594" lon="-1.18883">
        <ele>78.79798009037</ele>
        <time>2022-01-14T20:22:38.607Z</time>
      </trkpt>
      <trkpt lat="47.04632" lon="-1.18938">
        <ele>78.76955210745</ele>
        <time>2022-01-14T20:22:43.034Z</time>
      </trkpt>
      <trkpt lat="47.04663" lon="-1.18886">
        <ele>78.86263323032</ele>
        <time>2022-01-14T20:22:47.471Z</time>
      </trkpt>
      <trkpt lat="47.04666" lon="-1.18888">
        <ele>78.76631198275</ele>
        <time>2022-01-14T20:22:51.909Z</time>
      </trkpt>
    </trkseg>
  </trk>
</gpx>